PORTS® Data Listing: 8519483 Bergen Point West Reach, NY

CO-OPS RAW PORTS DATA

************************      PRELIMINARY DATA      ************************** 

     THIS RAW DATA HAS NOT BEEN SUBJECT TO THE NATIONAL OCEAN SERVICE'S        
     QUALITY CONTROL OR QUALITY ASSURANCE PROCEDURES AND DOES NOT MEET         
     THE CRITERIA AND STANDARDS OF OFFICIAL NATIONAL OCEAN SERVICE             
     DATA.  IT IS RELEASED FOR LIMITED PUBLIC USE AS PRELIMINARY DATA TO       
     BE USED ONLY WITH APPROPRIATE CAUTION.                                    

************************      PRELIMINARY DATA      ************************** 


       CD   -   Calendar date
       T    -   Time
       TZ   -   Timezone
       PW   -   Predicted water level (feet above MLLW)
       OW   -   Observed water level (feet above MLLW)
       WS   -   Wind speed (knots)
       WD   -   Wind direction (degrees true)
       WG   -   Wind gust (knots)
       AT   -   Air temperature (degrees farenheit)
       WT   -   Water temperature (degrees farenheit)
       AP   -   Air pressure (millibars)
       SA   -   Salinty (PSU - Practical Salinity Units)
       SG   -   Specific gravity
       RH   -   Relative humidity
       AG   -   Air gap (feet)
       VI   -   Visibility (nautical miles)

       ** NOTE **
       A variable that has its data fields filled with "9"s, indicates that
       data was not collected for that sample period.
       **********


STATION NAME: Bergen Point West Reach (8519483)
****************************************************************************************************
    CD       T    TZ    PW     OW    WS   WD   WG    AT    WT    AP    SA    SG     RH    AG   VI
****************************************************************************************************
2019/11/19 08:24 EST    1.21   2.81 -999 -999 -999  43.2  49.3 1008.8 -9.9 -9.999 -99.9 -99.99 -9.99
2019/11/19 08:30 EST    1.29   2.91 -999 -999 -999  43.2  49.5 1008.8 -9.9 -9.999 -99.9 -99.99 -9.99
2019/11/19 08:36 EST    1.37   3.02 -999 -999 -999  43.2  49.5 1008.8 -9.9 -9.999 -99.9 -99.99 -9.99
2019/11/19 08:42 EST    1.46   3.14 -999 -999 -999  43.3  49.5 1008.9 -9.9 -9.999 -99.9 -99.99 -9.99
2019/11/19 08:48 EST    1.55   3.26 -999 -999 -999  43.3  49.5 1008.9 -9.9 -9.999 -99.9 -99.99 -9.99
2019/11/19 08:54 EST    1.65   3.37 -999 -999 -999  43.3  49.5 1009.0 -9.9 -9.999 -99.9 -99.99 -9.99
2019/11/19 09:00 EST    1.76   3.50 -999 -999 -999  43.7  49.5 1009.0 -9.9 -9.999 -99.9 -99.99 -9.99
2019/11/19 09:06 EST    1.87   3.63 -999 -999 -999  44.2  49.5 1009.0 -9.9 -9.999 -99.9 -99.99 -9.99
2019/11/19 09:12 EST    1.99   3.75 -999 -999 -999  44.8  49.5 1008.9 -9.9 -9.999 -99.9 -99.99 -9.99
2019/11/19 09:18 EST    2.10   3.86 -999 -999 -999  44.8  49.5 1008.9 -9.9 -9.999 -99.9 -99.99 -9.99
2019/11/19 09:24 EST    2.23   3.99 -999 -999 -999  44.8  49.5 1008.9 -9.9 -9.999 -99.9 -99.99 -9.99
2019/11/19 09:30 EST    2.36   4.11 -999 -999 -999  44.8  49.5 1009.0 -9.9 -9.999 -99.9 -99.99 -9.99
2019/11/19 09:36 EST    2.49   4.23 -999 -999 -999  44.8  49.5 1009.0 -9.9 -9.999 -99.9 -99.99 -9.99
2019/11/19 09:42 EST    2.62   4.34 -999 -999 -999  45.1  49.5 1009.0 -9.9 -9.999 -99.9 -99.99 -9.99
2019/11/19 09:48 EST    2.75   4.47 -999 -999 -999  45.3  49.5 1009.1 -9.9 -9.999 -99.9 -99.99 -9.99
2019/11/19 09:54 EST    2.89   4.62 -999 -999 -999  45.5  49.6 1009.0 -9.9 -9.999 -99.9 -99.99 -9.99
2019/11/19 10:00 EST    3.03   4.73 -999 -999 -999  45.9  49.6 1009.1 -9.9 -9.999 -99.9 -99.99 -9.99
2019/11/19 10:06 EST    3.16   4.85 -999 -999 -999  45.9  49.6 1009.1 -9.9 -9.999 -99.9 -99.99 -9.99
2019/11/19 10:12 EST    3.30   4.97 -999 -999 -999  45.9  49.6 1009.1 -9.9 -9.999 -99.9 -99.99 -9.99
2019/11/19 10:18 EST    3.44   5.09 -999 -999 -999  46.0  49.6 1009.1 -9.9 -9.999 -99.9 -99.99 -9.99
2019/11/19 10:24 EST    3.57   5.20 -999 -999 -999  45.9  49.6 1009.0 -9.9 -9.999 -99.9 -99.99 -9.99
2019/11/19 10:30 EST    3.70   5.29 -999 -999 -999  46.4  49.6 1009.1 -9.9 -9.999 -99.9 -99.99 -9.99
2019/11/19 10:36 EST    3.83   5.39 -999 -999 -999  46.0  49.6 1009.0 -9.9 -9.999 -99.9 -99.99 -9.99
2019/11/19 10:42 EST    3.95   5.48 -999 -999 -999  46.0  49.6 1008.9 -9.9 -9.999 -99.9 -99.99 -9.99
2019/11/19 10:48 EST    4.07   5.56 -999 -999 -999  46.2  49.6 1008.9 -9.9 -9.999 -99.9 -99.99 -9.99
2019/11/19 10:54 EST    4.19   5.64 -999 -999 -999  46.2  49.6 1008.9 -9.9 -9.999 -99.9 -99.99 -9.99
2019/11/19 11:00 EST    4.30   5.71 -999 -999 -999  46.4  49.6 1008.8 -9.9 -9.999 -99.9 -99.99 -9.99
2019/11/19 11:06 EST    4.41   5.76 -999 -999 -999  46.4  49.6 1008.7 -9.9 -9.999 -99.9 -99.99 -9.99
2019/11/19 11:12 EST    4.51   5.81 -999 -999 -999  46.4  49.6 1008.7 -9.9 -9.999 -99.9 -99.99 -9.99
2019/11/19 11:18 EST    4.61   5.84 -999 -999 -999  46.6  49.6 1008.5 -9.9 -9.999 -99.9 -99.99 -9.99
2019/11/19 11:24 EST    4.70   5.88 -999 -999 -999  46.6  49.6 1008.5 -9.9 -9.999 -99.9 -99.99 -9.99
2019/11/19 11:30 EST    4.78   5.91 -999 -999 -999  46.6  49.8 1008.5 -9.9 -9.999 -99.9 -99.99 -9.99
2019/11/19 11:36 EST    4.86   5.96 -999 -999 -999  46.9  49.8 1008.5 -9.9 -9.999 -99.9 -99.99 -9.99
2019/11/19 11:42 EST    4.93   5.94 -999 -999 -999  46.9  49.8 1008.5 -9.9 -9.999 -99.9 -99.99 -9.99
2019/11/19 11:48 EST    5.00   5.98 -999 -999 -999  46.9  49.8 1008.4 -9.9 -9.999 -99.9 -99.99 -9.99
2019/11/19 11:54 EST    5.06   5.98 -999 -999 -999  46.8  49.8 1008.4 -9.9 -9.999 -99.9 -99.99 -9.99
2019/11/19 12:00 EST    5.11   5.97 -999 -999 -999  47.1  49.8 1008.3 -9.9 -9.999 -99.9 -99.99 -9.99
2019/11/19 12:06 EST    5.16   6.02 -999 -999 -999  47.1  49.8 1008.2 -9.9 -9.999 -99.9 -99.99 -9.99
2019/11/19 12:12 EST    5.20   6.01 -999 -999 -999  46.8  49.8 1008.2 -9.9 -9.999 -99.9 -99.99 -9.99
2019/11/19 12:18 EST    5.24   6.05 -999 -999 -999  46.9  49.8 1008.3 -9.9 -9.999 -99.9 -99.99 -9.99
2019/11/19 12:24 EST    5.27   6.07 -999 -999 -999  46.9  49.8 1008.3 -9.9 -9.999 -99.9 -99.99 -9.99
2019/11/19 12:30 EST    5.30   6.06 -999 -999 -999  48.0  49.8 1008.3 -9.9 -9.999 -99.9 -99.99 -9.99
2019/11/19 12:36 EST    5.32   6.11 -999 -999 -999  47.7  49.8 1008.3 -9.9 -9.999 -99.9 -99.99 -9.99
2019/11/19 12:42 EST    5.33   6.13 -999 -999 -999  47.5  49.8 1008.4 -9.9 -9.999 -99.9 -99.99 -9.99
2019/11/19 12:48 EST    5.34   6.16 -999 -999 -999  47.8  49.8 1008.4 -9.9 -9.999 -99.9 -99.99 -9.99
2019/11/19 12:54 EST    5.35   6.15 -999 -999 -999  48.0  49.8 1008.4 -9.9 -9.999 -99.9 -99.99 -9.99
2019/11/19 13:00 EST    5.35   6.17 -999 -999 -999  47.8  50.0 1008.5 -9.9 -9.999 -99.9 -99.99 -9.99
2019/11/19 13:06 EST    5.34   6.19 -999 -999 -999  47.8  50.0 1008.5 -9.9 -9.999 -99.9 -99.99 -9.99
2019/11/19 13:12 EST    5.33   6.21 -999 -999 -999  47.7  50.0 1008.5 -9.9 -9.999 -99.9 -99.99 -9.99
2019/11/19 13:18 EST    5.32   6.21 -999 -999 -999  48.0  50.0 1008.5 -9.9 -9.999 -99.9 -99.99 -9.99
2019/11/19 13:24 EST    5.30   6.23 -999 -999 -999  48.0  50.0 1008.4 -9.9 -9.999 -99.9 -99.99 -9.99
2019/11/19 13:30 EST    5.28   6.21 -999 -999 -999  47.8  50.0 1008.3 -9.9 -9.999 -99.9 -99.99 -9.99
2019/11/19 13:36 EST    5.25   6.22 -999 -999 -999  47.7  50.0 1008.3 -9.9 -9.999 -99.9 -99.99 -9.99
2019/11/19 13:42 EST    5.22   6.22 -999 -999 -999  47.7  50.0 1008.3 -9.9 -9.999 -99.9 -99.99 -9.99
2019/11/19 13:48 EST    5.18   6.20 -999 -999 -999  47.7  50.0 1008.3 -9.9 -9.999 -99.9 -99.99 -9.99
2019/11/19 13:54 EST    5.14   6.16 -999 -999 -999  47.7  50.0 1008.2 -9.9 -9.999 -99.9 -99.99 -9.99
2019/11/19 14:00 EST    5.09   6.13 -999 -999 -999  47.8  50.0 1008.2 -9.9 -9.999 -99.9 -99.99 -9.99
2019/11/19 14:06 EST    5.04   6.10 -999 -999 -999  47.8  50.0 1008.3 -9.9 -9.999 -99.9 -99.99 -9.99
2019/11/19 14:12 EST    4.98   6.05 -999 -999 -999  47.8  50.0 1008.4 -9.9 -9.999 -99.9 -99.99 -9.99
2019/11/19 14:18 EST    4.92   6.01 -999 -999 -999  47.8  50.0 1008.6 -9.9 -9.999 -99.9 -99.99 -9.99
2019/11/19 14:24 EST    4.86   5.95 -999 -999 -999  47.8  50.0 1008.7 -9.9 -9.999 -99.9 -99.99 -9.99
2019/11/19 14:30 EST    4.78   5.89 -999 -999 -999  47.7  50.0 1008.7 -9.9 -9.999 -99.9 -99.99 -9.99
2019/11/19 14:36 EST    4.71   5.81 -999 -999 -999  47.8  50.0 1008.7 -9.9 -9.999 -99.9 -99.99 -9.99
2019/11/19 14:42 EST    4.63   5.71 -999 -999 -999  47.8  50.0 1008.7 -9.9 -9.999 -99.9 -99.99 -9.99
2019/11/19 14:48 EST    4.54   5.63 -999 -999 -999  47.8  50.0 1008.8 -9.9 -9.999 -99.9 -99.99 -9.99
2019/11/19 14:54 EST    4.46   5.55 -999 -999 -999  48.0  50.0 1008.7 -9.9 -9.999 -99.9 -99.99 -9.99
2019/11/19 15:00 EST    4.36   5.44 -999 -999 -999  48.0  50.0 1008.8 -9.9 -9.999 -99.9 -99.99 -9.99
2019/11/19 15:06 EST    4.27   5.36 -999 -999 -999  47.8  50.0 1008.9 -9.9 -9.999 -99.9 -99.99 -9.99
2019/11/19 15:12 EST    4.16   5.25 -999 -999 -999  48.0  50.0 1009.0 -9.9 -9.999 -99.9 -99.99 -9.99
2019/11/19 15:18 EST    4.06   5.15 -999 -999 -999  47.7  50.0 1009.1 -9.9 -9.999 -99.9 -99.99 -9.99
2019/11/19 15:24 EST    3.95   5.05 -999 -999 -999  48.0  50.0 1009.2 -9.9 -9.999 -99.9 -99.99 -9.99
2019/11/19 15:30 EST    3.84   4.92 -999 -999 -999  47.8  50.0 1009.3 -9.9 -9.999 -99.9 -99.99 -9.99
2019/11/19 15:36 EST    3.73   4.82 -999 -999 -999  47.7  50.0 1009.3 -9.9 -9.999 -99.9 -99.99 -9.99
2019/11/19 15:42 EST    3.61   4.72 -999 -999 -999  47.7  50.0 1009.4 -9.9 -9.999 -99.9 -99.99 -9.99
2019/11/19 15:48 EST    3.50   4.63 -999 -999 -999  47.7  50.0 1009.5 -9.9 -9.999 -99.9 -99.99 -9.99
2019/11/19 15:54 EST    3.38   4.52 -999 -999 -999  47.5  50.0 1009.6 -9.9 -9.999 -99.9 -99.99 -9.99
2019/11/19 16:00 EST    3.26   4.41 -999 -999 -999  47.5  50.0 1009.7 -9.9 -9.999 -99.9 -99.99 -9.99
2019/11/19 16:06 EST    3.14   4.30 -999 -999 -999  47.5  50.0 1009.8 -9.9 -9.999 -99.9 -99.99 -9.99
2019/11/19 16:12 EST    3.02   4.19 -999 -999 -999  47.3  50.0 1009.7 -9.9 -9.999 -99.9 -99.99 -9.99
2019/11/19 16:18 EST    2.90   4.09 -999 -999 -999  47.3  50.0 1009.6 -9.9 -9.999 -99.9 -99.99 -9.99
2019/11/19 16:24 EST    2.78   3.96 -999 -999 -999  47.3  49.8 1009.7 -9.9 -9.999 -99.9 -99.99 -9.99
2019/11/19 16:30 EST    2.67   3.85 -999 -999 -999  47.3  49.8 1009.6 -9.9 -9.999 -99.9 -99.99 -9.99
2019/11/19 16:36 EST    2.55   3.74 -999 -999 -999  47.3  49.8 1009.5 -9.9 -9.999 -99.9 -99.99 -9.99
2019/11/19 16:42 EST    2.44   3.58 -999 -999 -999  47.3  49.8 1009.5 -9.9 -9.999 -99.9 -99.99 -9.99
2019/11/19 16:48 EST    2.33   3.48 -999 -999 -999  47.1  49.8 1009.7 -9.9 -9.999 -99.9 -99.99 -9.99
2019/11/19 16:54 EST    2.22   3.35 -999 -999 -999  47.1  49.8 1009.7 -9.9 -9.999 -99.9 -99.99 -9.99
2019/11/19 17:00 EST    2.11   3.24 -999 -999 -999  46.9  49.8 1009.7 -9.9 -9.999 -99.9 -99.99 -9.99
2019/11/19 17:06 EST    2.01   3.11 -999 -999 -999  46.9  49.8 1010.1 -9.9 -9.999 -99.9 -99.99 -9.99
2019/11/19 17:12 EST    1.91   2.99 -999 -999 -999  46.9  49.8 1010.1 -9.9 -9.999 -99.9 -99.99 -9.99
2019/11/19 17:18 EST    1.81   2.88 -999 -999 -999  46.9  49.8 1010.1 -9.9 -9.999 -99.9 -99.99 -9.99
2019/11/19 17:24 EST    1.72   2.77 -999 -999 -999  46.9  49.8 1010.2 -9.9 -9.999 -99.9 -99.99 -9.99
2019/11/19 17:30 EST    1.63   2.66 -999 -999 -999  46.9  49.6 1010.3 -9.9 -9.999 -99.9 -99.99 -9.99
2019/11/19 17:36 EST    1.55   2.57 -999 -999 -999  47.1  49.6 1010.4 -9.9 -9.999 -99.9 -99.99 -9.99
2019/11/19 17:42 EST    1.46   2.49 -999 -999 -999  46.8  49.6 1010.5 -9.9 -9.999 -99.9 -99.99 -9.99
2019/11/19 17:48 EST    1.38   2.36 -999 -999 -999  46.8  49.6 1010.7 -9.9 -9.999 -99.9 -99.99 -9.99
2019/11/19 17:54 EST    1.31   2.28 -999 -999 -999  46.6  49.6 1010.7 -9.9 -9.999 -99.9 -99.99 -9.99
2019/11/19 18:00 EST    1.24   2.22 -999 -999 -999  46.4  49.6 1010.9 -9.9 -9.999 -99.9 -99.99 -9.99
2019/11/19 18:06 EST    1.17   2.14 -999 -999 -999  46.4  49.6 1010.9 -9.9 -9.999 -99.9 -99.99 -9.99
2019/11/19 18:12 EST    1.10   2.08 -999 -999 -999  46.2  49.6 1011.0 -9.9 -9.999 -99.9 -99.99 -9.99
2019/11/19 18:18 EST    1.03   2.02 -999 -999 -999  46.4  49.6 1011.1 -9.9 -9.999 -99.9 -99.99 -9.99
2019/11/19 18:24 EST    0.97   1.95 -999 -999 -999  46.4  49.6 1011.1 -9.9 -9.999 -99.9 -99.99 -9.99
2019/11/19 18:30 EST    0.92   1.89 -999 -999 -999  46.2  49.6 1011.2 -9.9 -9.999 -99.9 -99.99 -9.99
2019/11/19 18:36 EST    0.86   1.82 -999 -999 -999  45.9  49.6 1011.1 -9.9 -9.999 -99.9 -99.99 -9.99
2019/11/19 18:42 EST    0.81   1.74 -999 -999 -999  46.0  49.6 1011.1 -9.9 -9.999 -99.9 -99.99 -9.99
2019/11/19 18:48 EST    0.75   1.68 -999 -999 -999  45.9  49.6 1011.0 -9.9 -9.999 -99.9 -99.99 -9.99
2019/11/19 18:54 EST    0.71   1.63 -999 -999 -999  45.9  49.6 1011.0 -9.9 -9.999 -99.9 -99.99 -9.99
2019/11/19 19:00 EST    0.66   1.58 -999 -999 -999  45.7  49.6 1011.1 -9.9 -9.999 -99.9 -99.99 -9.99
2019/11/19 19:06 EST    0.62   1.53 -999 -999 -999  45.7  49.6 1011.1 -9.9 -9.999 -99.9 -99.99 -9.99
2019/11/19 19:12 EST    0.57   1.48 -999 -999 -999  45.7  49.6 1011.1 -9.9 -9.999 -99.9 -99.99 -9.99
2019/11/19 19:18 EST    0.54   1.43 -999 -999 -999  45.7  49.6 1011.3 -9.9 -9.999 -99.9 -99.99 -9.99
2019/11/19 19:24 EST    0.50   1.39 -999 -999 -999  45.7  49.6 1011.3 -9.9 -9.999 -99.9 -99.99 -9.99
2019/11/19 19:30 EST    0.47   1.35 -999 -999 -999  45.7  49.6 1011.5 -9.9 -9.999 -99.9 -99.99 -9.99
2019/11/19 19:36 EST    0.44   1.31 -999 -999 -999  45.7  49.5 1011.5 -9.9 -9.999 -99.9 -99.99 -9.99
2019/11/19 19:42 EST    0.41   1.31 -999 -999 -999  45.7  49.5 1011.5 -9.9 -9.999 -99.9 -99.99 -9.99
2019/11/19 19:48 EST    0.39   1.28 -999 -999 -999  45.5  49.5 1011.6 -9.9 -9.999 -99.9 -99.99 -9.99
2019/11/19 19:54 EST    0.37   1.26 -999 -999 -999  45.5  49.5 1011.6 -9.9 -9.999 -99.9 -99.99 -9.99
2019/11/19 20:00 EST    0.36   1.24 -999 -999 -999  45.5  49.5 1011.7 -9.9 -9.999 -99.9 -99.99 -9.99
2019/11/19 20:06 EST    0.35   1.23 -999 -999 -999  45.5  49.5 1011.7 -9.9 -9.999 -99.9 -99.99 -9.99
2019/11/19 20:12 EST    0.34   1.25 -999 -999 -999  45.5  49.5 1011.8 -9.9 -9.999 -99.9 -99.99 -9.99
2019/11/19 20:18 EST    0.35   1.26 -999 -999 -999  45.3  49.5 1011.8 -9.9 -9.999 -99.9 -99.99 -9.99
2019/11/19 20:24 EST    0.35   1.25 -999 -999 -999  45.1  49.5 1011.7 -9.9 -9.999 -99.9 -99.99 -9.99
2019/11/19 20:30 EST    0.37   1.25 -999 -999 -999  45.1  49.3 1011.8 -9.9 -9.999 -99.9 -99.99 -9.99
2019/11/19 20:36 EST    0.39   1.28 -999 -999 -999  45.1  49.3 1011.8 -9.9 -9.999 -99.9 -99.99 -9.99
2019/11/19 20:42 EST    0.41   1.30 -999 -999 -999  45.1  49.3 1011.8 -9.9 -9.999 -99.9 -99.99 -9.99
2019/11/19 20:48 EST    0.44   1.34 -999 -999 -999  45.3  49.3 1011.9 -9.9 -9.999 -99.9 -99.99 -9.99
2019/11/19 20:54 EST    0.48   1.39 -999 -999 -999  45.3  49.3 1011.9 -9.9 -9.999 -99.9 -99.99 -9.99
2019/11/19 21:00 EST    0.53   1.46 -999 -999 -999  45.1  49.3 1011.8 -9.9 -9.999 -99.9 -99.99 -9.99
2019/11/19 21:06 EST    0.58   1.53 -999 -999 -999  45.0  49.3 1011.8 -9.9 -9.999 -99.9 -99.99 -9.99
2019/11/19 21:12 EST    0.64   1.60 -999 -999 -999  45.0  49.3 1011.8 -9.9 -9.999 -99.9 -99.99 -9.99
2019/11/19 21:18 EST    0.71   1.68 -999 -999 -999  45.0  49.3 1011.8 -9.9 -9.999 -99.9 -99.99 -9.99
2019/11/19 21:24 EST    0.78   1.77 -999 -999 -999  44.8  49.3 1011.9 -9.9 -9.999 -99.9 -99.99 -9.99
2019/11/19 21:30 EST    0.87   1.87 -999 -999 -999  44.6  49.3 1012.0 -9.9 -9.999 -99.9 -99.99 -9.99
2019/11/19 21:36 EST    0.95   1.96 -999 -999 -999  44.6  49.5 1012.0 -9.9 -9.999 -99.9 -99.99 -9.99
2019/11/19 21:42 EST    1.05   2.06 -999 -999 -999  44.6  49.3 1011.9 -9.9 -9.999 -99.9 -99.99 -9.99
2019/11/19 21:48 EST    1.15   2.17 -999 -999 -999  44.4  49.3 1011.9 -9.9 -9.999 -99.9 -99.99 -9.99
2019/11/19 21:54 EST    1.25   2.29 -999 -999 -999  44.4  49.3 1011.8 -9.9 -9.999 -99.9 -99.99 -9.99
2019/11/19 22:00 EST    1.36   2.41 -999 -999 -999  44.8  49.3 1011.7 -9.9 -9.999 -99.9 -99.99 -9.99
2019/11/19 22:06 EST    1.48   2.54 -999 -999 -999  44.4  49.3 1011.8 -9.9 -9.999 -99.9 -99.99 -9.99
2019/11/19 22:12 EST    1.60   2.66 -999 -999 -999  44.2  49.3 1011.7 -9.9 -9.999 -99.9 -99.99 -9.99
2019/11/19 22:18 EST    1.72   2.79 -999 -999 -999  44.2  49.3 1011.7 -9.9 -9.999 -99.9 -99.99 -9.99
2019/11/19 22:24 EST    1.85   2.91 -999 -999 -999  44.2  49.3 1011.7 -9.9 -9.999 -99.9 -99.99 -9.99
2019/11/19 22:30 EST    1.97   3.03 -999 -999 -999  44.2  49.3 1011.7 -9.9 -9.999 -99.9 -99.99 -9.99
2019/11/19 22:36 EST    2.10   3.16 -999 -999 -999  44.1  49.3 1011.6 -9.9 -9.999 -99.9 -99.99 -9.99
2019/11/19 22:42 EST    2.23   3.28 -999 -999 -999  44.1  49.3 1011.6 -9.9 -9.999 -99.9 -99.99 -9.99
2019/11/19 22:48 EST    2.37   3.40 -999 -999 -999  44.1  49.3 1011.5 -9.9 -9.999 -99.9 -99.99 -9.99
2019/11/19 22:54 EST    2.50   3.51 -999 -999 -999  44.1  49.3 1011.5 -9.9 -9.999 -99.9 -99.99 -9.99
2019/11/19 23:00 EST    2.63   3.63 -999 -999 -999  43.9  49.3 1011.5 -9.9 -9.999 -99.9 -99.99 -9.99
2019/11/19 23:06 EST    2.76   3.76 -999 -999 -999  43.9  49.3 1011.5 -9.9 -9.999 -99.9 -99.99 -9.99
2019/11/19 23:12 EST    2.88   3.88 -999 -999 -999  43.9  49.1 1011.5 -9.9 -9.999 -99.9 -99.99 -9.99
2019/11/19 23:18 EST    3.01   3.98 -999 -999 -999  43.9  49.1 1011.5 -9.9 -9.999 -99.9 -99.99 -9.99
2019/11/19 23:24 EST    3.13   4.09 -999 -999 -999  43.9  49.3 1011.4 -9.9 -9.999 -99.9 -99.99 -9.99
2019/11/19 23:30 EST    3.25   4.17 -999 -999 -999  43.9  49.3 1011.4 -9.9 -9.999 -99.9 -99.99 -9.99
2019/11/19 23:36 EST    3.37   4.27 -999 -999 -999  43.9  49.3 1011.3 -9.9 -9.999 -99.9 -99.99 -9.99
2019/11/19 23:42 EST    3.48   4.34 -999 -999 -999  43.9  49.3 1011.3 -9.9 -9.999 -99.9 -99.99 -9.99
2019/11/19 23:48 EST    3.59   4.43 -999 -999 -999  43.5  49.3 1011.3 -9.9 -9.999 -99.9 -99.99 -9.99
2019/11/19 23:54 EST    3.69   4.51 -999 -999 -999  44.1  49.3 1011.3 -9.9 -9.999 -99.9 -99.99 -9.99
2019/11/20 00:00 EST    3.79   4.58 -999 -999 -999  43.7  49.3 1011.3 -9.9 -9.999 -99.9 -99.99 -9.99
2019/11/20 00:06 EST    3.89   4.66 -999 -999 -999  43.5  49.3 1011.3 -9.9 -9.999 -99.9 -99.99 -9.99
2019/11/20 00:12 EST    3.98   4.71 -999 -999 -999  43.5  49.3 1011.3 -9.9 -9.999 -99.9 -99.99 -9.99
2019/11/20 00:18 EST    4.06   4.78 -999 -999 -999  43.5  49.3 1011.2 -9.9 -9.999 -99.9 -99.99 -9.99
2019/11/20 00:24 EST    4.14   4.85 -999 -999 -999  43.5  49.3 1011.1 -9.9 -9.999 -99.9 -99.99 -9.99
2019/11/20 00:30 EST    4.22   4.90 -999 -999 -999  43.2  49.5 1011.2 -9.9 -9.999 -99.9 -99.99 -9.99
2019/11/20 00:36 EST    4.29   4.95 -999 -999 -999  43.5  49.5 1011.2 -9.9 -9.999 -99.9 -99.99 -9.99
2019/11/20 00:42 EST    4.35   5.01 -999 -999 -999  43.2  49.5 1011.2 -9.9 -9.999 -99.9 -99.99 -9.99
2019/11/20 00:48 EST    4.41   5.07 -999 -999 -999  43.3  49.5 1011.2 -9.9 -9.999 -99.9 -99.99 -9.99
2019/11/20 00:54 EST    4.47   5.13 -999 -999 -999  43.2  49.5 1011.3 -9.9 -9.999 -99.9 -99.99 -9.99
2019/11/20 01:00 EST    4.52   5.16 -999 -999 -999  42.4  49.5 1011.3 -9.9 -9.999 -99.9 -99.99 -9.99
2019/11/20 01:06 EST    4.56   5.19 -999 -999 -999  42.4  49.5 1011.3 -9.9 -9.999 -99.9 -99.99 -9.99
2019/11/20 01:12 EST    4.60   5.24 -999 -999 -999  42.4  49.5 1011.3 -9.9 -9.999 -99.9 -99.99 -9.99
2019/11/20 01:18 EST    4.64   5.28 -999 -999 -999  42.6  49.3 1011.4 -9.9 -9.999 -99.9 -99.99 -9.99
2019/11/20 01:24 EST    4.67   5.32 -999 -999 -999  42.6  49.3 1011.4 -9.9 -9.999 -99.9 -99.99 -9.99
2019/11/20 01:30 EST    4.70   5.35 -999 -999 -999  42.6  49.3 1011.4 -9.9 -9.999 -99.9 -99.99 -9.99
2019/11/20 01:36 EST    4.72   5.37 -999 -999 -999  42.6  49.3 1011.5 -9.9 -9.999 -99.9 -99.99 -9.99
2019/11/20 01:42 EST    4.73   5.40 -999 -999 -999  42.6  49.3 1011.4 -9.9 -9.999 -99.9 -99.99 -9.99
2019/11/20 01:48 EST    4.74   5.41 -999 -999 -999  43.0  49.3 1011.4 -9.9 -9.999 -99.9 -99.99 -9.99
2019/11/20 01:54 EST    4.75   5.41 -999 -999 -999  42.6  49.3 1011.3 -9.9 -9.999 -99.9 -99.99 -9.99
2019/11/20 02:00 EST    4.75   5.41 -999 -999 -999  42.6  49.5 1011.4 -9.9 -9.999 -99.9 -99.99 -9.99
2019/11/20 02:06 EST    4.74   5.39 -999 -999 -999  42.6  49.5 1011.4 -9.9 -9.999 -99.9 -99.99 -9.99
2019/11/20 02:12 EST    4.73   5.38 -999 -999 -999  43.0  49.5 1011.5 -9.9 -9.999 -99.9 -99.99 -9.99
2019/11/20 02:18 EST    4.72   5.37 -999 -999 -999  43.0  49.5 1011.5 -9.9 -9.999 -99.9 -99.99 -9.99
2019/11/20 02:24 EST    4.70   5.35 -999 -999 -999  43.0  49.5 1011.5 -9.9 -9.999 -99.9 -99.99 -9.99
2019/11/20 02:30 EST    4.67   5.31 -999 -999 -999  43.0  49.5 1011.6 -9.9 -9.999 -99.9 -99.99 -9.99
2019/11/20 02:36 EST    4.64   5.26 -999 -999 -999  43.0  49.5 1011.6 -9.9 -9.999 -99.9 -99.99 -9.99
2019/11/20 02:42 EST    4.60   5.23 -999 -999 -999  43.2  49.5 1011.6 -9.9 -9.999 -99.9 -99.99 -9.99
2019/11/20 02:48 EST    4.56   5.17 -999 -999 -999  43.2  49.5 1011.6 -9.9 -9.999 -99.9 -99.99 -9.99
2019/11/20 02:54 EST    4.51   5.10 -999 -999 -999  42.8  49.5 1011.6 -9.9 -9.999 -99.9 -99.99 -9.99
2019/11/20 03:00 EST    4.46   5.06 -999 -999 -999  42.8  49.5 1011.6 -9.9 -9.999 -99.9 -99.99 -9.99
2019/11/20 03:06 EST    4.40   4.99 -999 -999 -999  43.0  49.5 1011.6 -9.9 -9.999 -99.9 -99.99 -9.99
2019/11/20 03:12 EST    4.34   4.93 -999 -999 -999  43.0  49.5 1011.6 -9.9 -9.999 -99.9 -99.99 -9.99
2019/11/20 03:18 EST    4.27   4.88 -999 -999 -999  42.8  49.5 1011.7 -9.9 -9.999 -99.9 -99.99 -9.99
2019/11/20 03:24 EST    4.20   4.79 -999 -999 -999  43.0  49.5 1011.7 -9.9 -9.999 -99.9 -99.99 -9.99
2019/11/20 03:30 EST    4.12   4.72 -999 -999 -999  42.8  49.5 1011.6 -9.9 -9.999 -99.9 -99.99 -9.99
2019/11/20 03:36 EST    4.03   4.64 -999 -999 -999  42.8  49.3 1011.7 -9.9 -9.999 -99.9 -99.99 -9.99
2019/11/20 03:42 EST    3.95   4.57 -999 -999 -999  42.8  49.3 1011.7 -9.9 -9.999 -99.9 -99.99 -9.99
2019/11/20 03:48 EST    3.86   4.47 -999 -999 -999  42.4  49.3 1011.7 -9.9 -9.999 -99.9 -99.99 -9.99
2019/11/20 03:54 EST    3.76   4.38 -999 -999 -999  42.4  49.3 1011.7 -9.9 -9.999 -99.9 -99.99 -9.99
2019/11/20 04:00 EST    3.66   4.25 -999 -999 -999  42.3  49.3 1011.8 -9.9 -9.999 -99.9 -99.99 -9.99
2019/11/20 04:06 EST    3.56   4.17 -999 -999 -999  42.1  49.3 1011.8 -9.9 -9.999 -99.9 -99.99 -9.99
2019/11/20 04:12 EST    3.46   4.07 -999 -999 -999  41.9  49.3 1011.8 -9.9 -9.999 -99.9 -99.99 -9.99
2019/11/20 04:18 EST    3.35   3.97 -999 -999 -999  42.1  49.3 1011.8 -9.9 -9.999 -99.9 -99.99 -9.99
2019/11/20 04:24 EST    3.25   3.87 -999 -999 -999  42.3  49.3 1011.8 -9.9 -9.999 -99.9 -99.99 -9.99
2019/11/20 04:30 EST    3.14   3.75 -999 -999 -999  41.9  49.3 1011.9 -9.9 -9.999 -99.9 -99.99 -9.99
2019/11/20 04:36 EST    3.03   3.63 -999 -999 -999  42.1  49.3 1011.8 -9.9 -9.999 -99.9 -99.99 -9.99
2019/11/20 04:42 EST    2.92   3.54 -999 -999 -999  41.9  49.3 1011.9 -9.9 -9.999 -99.9 -99.99 -9.99
2019/11/20 04:48 EST    2.81   3.40 -999 -999 -999  41.9  49.3 1012.0 -9.9 -9.999 -99.9 -99.99 -9.99
2019/11/20 04:54 EST    2.71   3.27 -999 -999 -999  41.7  49.1 1012.0 -9.9 -9.999 -99.9 -99.99 -9.99
2019/11/20 05:00 EST    2.60   3.13 -999 -999 -999  41.9  49.1 1012.1 -9.9 -9.999 -99.9 -99.99 -9.99
2019/11/20 05:06 EST    2.50   3.02 -999 -999 -999  41.7  49.1 1012.2 -9.9 -9.999 -99.9 -99.99 -9.99
2019/11/20 05:12 EST    2.39   2.91 -999 -999 -999  41.7  49.1 1012.3 -9.9 -9.999 -99.9 -99.99 -9.99
2019/11/20 05:18 EST    2.29   2.82 -999 -999 -999  41.9  49.1 1012.3 -9.9 -9.999 -99.9 -99.99 -9.99
2019/11/20 05:24 EST    2.20   2.71 -999 -999 -999  41.7  49.1 1012.4 -9.9 -9.999 -99.9 -99.99 -9.99
2019/11/20 05:30 EST    2.10   2.62 -999 -999 -999  41.7  49.1 1012.5 -9.9 -9.999 -99.9 -99.99 -9.99
2019/11/20 05:36 EST    2.01   2.45 -999 -999 -999  41.9  49.1 1012.5 -9.9 -9.999 -99.9 -99.99 -9.99
2019/11/20 05:42 EST    1.92   2.42 -999 -999 -999  41.5  49.1 1012.6 -9.9 -9.999 -99.9 -99.99 -9.99
2019/11/20 05:48 EST    1.84   2.32 -999 -999 -999  41.7  49.1 1012.7 -9.9 -9.999 -99.9 -99.99 -9.99
2019/11/20 05:54 EST    1.75   2.23 -999 -999 -999  41.7  49.1 1012.7 -9.9 -9.999 -99.9 -99.99 -9.99
2019/11/20 06:00 EST    1.68   2.14 -999 -999 -999  41.7  49.1 1012.7 -9.9 -9.999 -99.9 -99.99 -9.99
2019/11/20 06:06 EST    1.60   2.06 -999 -999 -999  41.5  49.1 1012.8 -9.9 -9.999 -99.9 -99.99 -9.99
2019/11/20 06:12 EST    1.53   2.03 -999 -999 -999  41.7  49.1 1012.9 -9.9 -9.999 -99.9 -99.99 -9.99
2019/11/20 06:18 EST    1.46   1.97 -999 -999 -999  41.7  49.1 1013.0 -9.9 -9.999 -99.9 -99.99 -9.99
2019/11/20 06:24 EST    1.40   1.91 -999 -999 -999  41.5  48.9 1013.0 -9.9 -9.999 -99.9 -99.99 -9.99
2019/11/20 06:30 EST    1.33   1.85 -999 -999 -999  41.4  48.9 1013.1 -9.9 -9.999 -99.9 -99.99 -9.99
2019/11/20 06:36 EST    1.27   1.80 -999 -999 -999  41.0  48.9 1013.1 -9.9 -9.999 -99.9 -99.99 -9.99
2019/11/20 06:42 EST    1.22   1.76 -999 -999 -999  41.2  48.9 1013.1 -9.9 -9.999 -99.9 -99.99 -9.99
2019/11/20 06:48 EST    1.17   1.70 -999 -999 -999  41.2  48.9 1013.2 -9.9 -9.999 -99.9 -99.99 -9.99
2019/11/20 06:54 EST    1.12   1.65 -999 -999 -999  41.2  48.9 1013.1 -9.9 -9.999 -99.9 -99.99 -9.99
2019/11/20 07:00 EST    1.07   1.60 -999 -999 -999  41.0  48.9 1013.2 -9.9 -9.999 -99.9 -99.99 -9.99
2019/11/20 07:06 EST    1.02   1.55 -999 -999 -999  41.2  48.9 1013.2 -9.9 -9.999 -99.9 -99.99 -9.99
2019/11/20 07:12 EST    0.98   1.51 -999 -999 -999  41.0  48.7 1013.3 -9.9 -9.999 -99.9 -99.99 -9.99
2019/11/20 07:18 EST    0.94   1.46 -999 -999 -999  41.0  48.7 1013.5 -9.9 -9.999 -99.9 -99.99 -9.99
2019/11/20 07:24 EST    0.91   1.41 -999 -999 -999  41.0  48.7 1013.6 -9.9 -9.999 -99.9 -99.99 -9.99
2019/11/20 07:30 EST    0.87   1.33 -999 -999 -999  41.0  48.7 1013.7 -9.9 -9.999 -99.9 -99.99 -9.99
2019/11/20 07:36 EST    0.84   1.31 -999 -999 -999  41.2  48.6 1013.8 -9.9 -9.999 -99.9 -99.99 -9.99
2019/11/20 07:42 EST    0.81   1.24 -999 -999 -999  40.8  48.6 1013.9 -9.9 -9.999 -99.9 -99.99 -9.99
2019/11/20 07:48 EST    0.79   1.19 -999 -999 -999  40.8  48.6 1013.9 -9.9 -9.999 -99.9 -99.99 -9.99
2019/11/20 07:54 EST    0.77   1.16 -999 -999 -999  41.0  48.6 1014.0 -9.9 -9.999 -99.9 -99.99 -9.99
2019/11/20 08:00 EST    0.75   1.13 -999 -999 -999  40.8  48.6 1014.0 -9.9 -9.999 -99.9 -99.99 -9.99
2019/11/20 08:06 EST    0.73   1.09 -999 -999 -999  41.0  48.6 1014.1 -9.9 -9.999 -99.9 -99.99 -9.99
2019/11/20 08:12 EST    0.72   1.07 -999 -999 -999  40.8  48.6 1014.1 -9.9 -9.999 -99.9 -99.99 -9.99
2019/11/20 08:18 EST    0.72   1.06 -999 -999 -999  41.0  48.6 1014.1 -9.9 -9.999 -99.9 -99.99 -9.99
2019/11/20 08:24 EST    0.72   1.05 -999 -999 -999  40.8  48.6 1014.1 -9.9 -9.999 -99.9 -99.99 -9.99
2019/11/20 08:30 EST    0.72   1.07 -999 -999 -999  41.2  48.6 1014.1 -9.9 -9.999 -99.9 -99.99 -9.99
2019/11/20 08:36 EST    0.73   1.09 -999 -999 -999  41.2  48.6 1014.2 -9.9 -9.999 -99.9 -99.99 -9.99
2019/11/20 08:42 EST    0.74   1.12 -999 -999 -999  41.2  48.6 1014.2 -9.9 -9.999 -99.9 -99.99 -9.99
2019/11/20 08:48 EST    0.76   1.15 -999 -999 -999  41.0  48.6 1014.3 -9.9 -9.999 -99.9 -99.99 -9.99
2019/11/20 08:54 EST    0.79   1.17 -999 -999 -999  41.0  48.6 1014.4 -9.9 -9.999 -99.9 -99.99 -9.99
2019/11/20 09:00 EST    0.82   1.21 -999 -999 -999  41.0  48.6 1014.3 -9.9 -9.999 -99.9 -99.99 -9.99
2019/11/20 09:06 EST    0.86   1.27 -999 -999 -999  40.8  48.6 1014.4 -9.9 -9.999 -99.9 -99.99 -9.99
2019/11/20 09:12 EST    0.91   1.34 -999 -999 -999  40.8  48.6 1014.3 -9.9 -9.999 -99.9 -99.99 -9.99
2019/11/20 09:18 EST    0.96   1.43 -999 -999 -999  41.5  48.6 1014.4 -9.9 -9.999 -99.9 -99.99 -9.99
2019/11/20 09:24 EST    1.02   1.54 -999 -999 -999  41.4  48.6 1014.5 -9.9 -9.999 -99.9 -99.99 -9.99
2019/11/20 09:30 EST    1.09   1.63 -999 -999 -999  41.5  48.6 1014.5 -9.9 -9.999 -99.9 -99.99 -9.99
2019/11/20 09:36 EST    1.17   1.75 -999 -999 -999  41.9  48.6 1014.5 -9.9 -9.999 -99.9 -99.99 -9.99
2019/11/20 09:42 EST    1.25   1.87 -999 -999 -999  42.1  48.6 1014.5 -9.9 -9.999 -99.9 -99.99 -9.99
2019/11/20 09:48 EST    1.34   1.99 -999 -999 -999  42.4  48.6 1014.5 -9.9 -9.999 -99.9 -99.99 -9.99
2019/11/20 09:54 EST    1.43   2.11 -999 -999 -999  42.3  48.6 1014.5 -9.9 -9.999 -99.9 -99.99 -9.99
2019/11/20 10:00 EST    1.53   2.23 -999 -999 -999  42.6  48.6 1014.5 -9.9 -9.999 -99.9 -99.99 -9.99
2019/11/20 10:06 EST    1.64   2.34 -999 -999 -999  42.8  48.6 1014.6 -9.9 -9.999 -99.9 -99.99 -9.99
2019/11/20 10:12 EST    1.76   2.49 -999 -999 -999  43.2  48.6 1014.6 -9.9 -9.999 -99.9 -99.99 -9.99
2019/11/20 10:18 EST    1.87   2.64 -999 -999 -999  43.0  48.7 1014.7 -9.9 -9.999 -99.9 -99.99 -9.99
2019/11/20 10:24 EST    2.00   2.77 -999 -999 -999  43.2  48.7 1014.7 -9.9 -9.999 -99.9 -99.99 -9.99
2019/11/20 10:30 EST    2.13   2.91 -999 -999 -999  43.7  48.7 1014.6 -9.9 -9.999 -99.9 -99.99 -9.99
2019/11/20 10:36 EST    2.26   3.03 -999 -999 -999  43.3  48.7 1014.5 -9.9 -9.999 -99.9 -99.99 -9.99
2019/11/20 10:42 EST    2.39   3.17 -999 -999 -999  43.2  48.7 1014.5 -9.9 -9.999 -99.9 -99.99 -9.99
2019/11/20 10:48 EST    2.53   3.29 -999 -999 -999  43.5  48.7 1014.5 -9.9 -9.999 -99.9 -99.99 -9.99
2019/11/20 10:54 EST    2.67   3.41 -999 -999 -999  43.3  48.7 1014.4 -9.9 -9.999 -99.9 -99.99 -9.99
2019/11/20 11:00 EST    2.81   3.52 -999 -999 -999  43.9  48.9 1014.4 -9.9 -9.999 -99.9 -99.99 -9.99
2019/11/20 11:06 EST    2.95   3.63 -999 -999 -999  44.1  48.9 1014.4 -9.9 -9.999 -99.9 -99.99 -9.99
2019/11/20 11:12 EST    3.09   3.76 -999 -999 -999  43.9  48.9 1014.4 -9.9 -9.999 -99.9 -99.99 -9.99
2019/11/20 11:18 EST    3.23   3.88 -999 -999 -999  43.7  48.9 1014.4 -9.9 -9.999 -99.9 -99.99 -9.99
2019/11/20 11:24 EST    3.37   4.00 -999 -999 -999  44.6  48.9 1014.4 -9.9 -9.999 -99.9 -99.99 -9.99
2019/11/20 11:30 EST    3.50   4.12 -999 -999 -999  44.2  48.9 1014.3 -9.9 -9.999 -99.9 -99.99 -9.99
2019/11/20 11:36 EST    3.63   4.22 -999 -999 -999  44.6  48.7 1014.3 -9.9 -9.999 -99.9 -99.99 -9.99
2019/11/20 11:42 EST    3.76   4.32 -999 -999 -999  44.4  48.7 1014.4 -9.9 -9.999 -99.9 -99.99 -9.99
2019/11/20 11:48 EST    3.89   4.42 -999 -999 -999  43.9  48.7 1014.4 -9.9 -9.999 -99.9 -99.99 -9.99
2019/11/20 11:54 EST    4.01   4.53 -999 -999 -999  43.9  48.9 1014.4 -9.9 -9.999 -99.9 -99.99 -9.99
2019/11/20 12:00 EST    4.13   4.60 -999 -999 -999  44.8  48.9 1014.4 -9.9 -9.999 -99.9 -99.99 -9.99
2019/11/20 12:06 EST    4.24   4.68 -999 -999 -999  44.8  48.9 1014.5 -9.9 -9.999 -99.9 -99.99 -9.99
2019/11/20 12:12 EST    4.35   4.76 -999 -999 -999  45.0  48.9 1014.5 -9.9 -9.999 -99.9 -99.99 -9.99
2019/11/20 12:18 EST    4.45   4.79 -999 -999 -999  45.0  48.9 1014.5 -9.9 -9.999 -99.9 -99.99 -9.99
2019/11/20 12:24 EST    4.55   4.92 -999 -999 -999  44.8  48.9 1014.5 -9.9 -9.999 -99.9 -99.99 -9.99
2019/11/20 12:30 EST    4.64   4.97 -999 -999 -999  44.8  48.9 1014.4 -9.9 -9.999 -99.9 -99.99 -9.99
2019/11/20 12:36 EST    4.73   5.02 -999 -999 -999  45.3  48.9 1014.4 -9.9 -9.999 -99.9 -99.99 -9.99
2019/11/20 12:42 EST    4.81   5.05 -999 -999 -999  45.5  49.1 1014.4 -9.9 -9.999 -99.9 -99.99 -9.99
2019/11/20 12:48 EST    4.88   5.12 -999 -999 -999  46.0  49.1 1014.4 -9.9 -9.999 -99.9 -99.99 -9.99
2019/11/20 12:54 EST    4.95   5.17 -999 -999 -999  46.2  49.1 1014.3 -9.9 -9.999 -99.9 -99.99 -9.99
2019/11/20 13:00 EST    5.01   5.22 -999 -999 -999  45.7  49.1 1014.2 -9.9 -9.999 -99.9 -99.99 -9.99
2019/11/20 13:06 EST    5.06   5.25 -999 -999 -999  46.6  49.1 1014.3 -9.9 -9.999 -99.9 -99.99 -9.99
2019/11/20 13:12 EST    5.11   5.26 -999 -999 -999  46.9  49.1 1014.3 -9.9 -9.999 -99.9 -99.99 -9.99
2019/11/20 13:18 EST    5.16   5.29 -999 -999 -999  47.1  49.1 1014.3 -9.9 -9.999 -99.9 -99.99 -9.99
2019/11/20 13:24 EST    5.19   5.32 -999 -999 -999  48.0  49.1 1014.2 -9.9 -9.999 -99.9 -99.99 -9.99
2019/11/20 13:30 EST    5.22   5.32 -999 -999 -999  47.5  49.1 1014.1 -9.9 -9.999 -99.9 -99.99 -9.99
2019/11/20 13:36 EST    5.25   5.33 -999 -999 -999  48.2  49.3 1014.1 -9.9 -9.999 -99.9 -99.99 -9.99
2019/11/20 13:42 EST    5.27   5.35 -999 -999 -999  47.8  49.3 1014.2 -9.9 -9.999 -99.9 -99.99 -9.99
2019/11/20 13:48 EST    5.29   5.34 -999 -999 -999  48.4  49.3 1014.2 -9.9 -9.999 -99.9 -99.99 -9.99
2019/11/20 13:54 EST    5.30   5.34 -999 -999 -999  48.6  49.3 1014.2 -9.9 -9.999 -99.9 -99.99 -9.99
2019/11/20 14:00 EST    5.30   5.35 -999 -999 -999  48.7  49.3 1014.3 -9.9 -9.999 -99.9 -99.99 -9.99
2019/11/20 14:06 EST    5.30   5.35 -999 -999 -999  48.7  49.3 1014.2 -9.9 -9.999 -99.9 -99.99 -9.99
2019/11/20 14:12 EST    5.30   5.33 -999 -999 -999  48.7  49.3 1014.3 -9.9 -9.999 -99.9 -99.99 -9.99
2019/11/20 14:18 EST    5.29   5.30 -999 -999 -999  48.7  49.3 1014.3 -9.9 -9.999 -99.9 -99.99 -9.99
2019/11/20 14:24 EST    5.27   5.31 -999 -999 -999  48.7  49.3 1014.3 -9.9 -9.999 -99.9 -99.99 -9.99
2019/11/20 14:30 EST    5.25   5.31 -999 -999 -999  48.6  49.3 1014.4 -9.9 -9.999 -99.9 -99.99 -9.99
2019/11/20 14:36 EST    5.22   5.29 -999 -999 -999  49.1  49.3 1014.4 -9.9 -9.999 -99.9 -99.99 -9.99
2019/11/20 14:42 EST    5.19   5.28 -999 -999 -999  48.6  49.3 1014.5 -9.9 -9.999 -99.9 -99.99 -9.99
2019/11/20 14:48 EST    5.15   5.26 -999 -999 -999  48.6  49.3 1014.5 -9.9 -9.999 -99.9 -99.99 -9.99
2019/11/20 14:54 EST    5.11   5.24 -999 -999 -999  48.9  49.3 1014.5 -9.9 -9.999 -99.9 -99.99 -9.99
2019/11/20 15:00 EST    5.07   5.20 -999 -999 -999  48.0  49.3 1014.5 -9.9 -9.999 -99.9 -99.99 -9.99
2019/11/20 15:06 EST    5.01   5.16 -999 -999 -999  47.7  49.3 1014.6 -9.9 -9.999 -99.9 -99.99 -9.99
2019/11/20 15:12 EST    4.96   5.13 -999 -999 -999  47.3  49.3 1014.8 -9.9 -9.999 -99.9 -99.99 -9.99
2019/11/20 15:18 EST    4.90   5.08 -999 -999 -999  47.3  49.3 1014.8 -9.9 -9.999 -99.9 -99.99 -9.99
2019/11/20 15:24 EST    4.83   5.06 -999 -999 -999  47.1  49.3 1014.8 -9.9 -9.999 -99.9 -99.99 -9.99
2019/11/20 15:30 EST    4.76   5.02 -999 -999 -999  47.1  49.3 1015.0 -9.9 -9.999 -99.9 -99.99 -9.99
2019/11/20 15:36 EST    4.68   4.96 -999 -999 -999  46.8  49.3 1015.0 -9.9 -9.999 -99.9 -99.99 -9.99
2019/11/20 15:42 EST    4.60   4.89 -999 -999 -999  46.6  49.3 1015.2 -9.9 -9.999 -99.9 -99.99 -9.99
2019/11/20 15:48 EST    4.51   4.82 -999 -999 -999  46.4  49.3 1015.3 -9.9 -9.999 -99.9 -99.99 -9.99
2019/11/20 15:54 EST    4.43   4.73 -999 -999 -999  46.4  49.3 1015.5 -9.9 -9.999 -99.9 -99.99 -9.99
2019/11/20 16:00 EST    4.33   4.67 -999 -999 -999  46.4  49.3 1015.6 -9.9 -9.999 -99.9 -99.99 -9.99
2019/11/20 16:06 EST    4.23   4.59 -999 -999 -999  46.0  49.3 1015.7 -9.9 -9.999 -99.9 -99.99 -9.99
2019/11/20 16:12 EST    4.13   4.50 -999 -999 -999  46.0  49.3 1015.8 -9.9 -9.999 -99.9 -99.99 -9.99
2019/11/20 16:18 EST    4.03   4.41 -999 -999 -999  46.0  49.3 1015.9 -9.9 -9.999 -99.9 -99.99 -9.99
2019/11/20 16:24 EST    3.92   4.32 -999 -999 -999  46.0  49.3 1016.0 -9.9 -9.999 -99.9 -99.99 -9.99
2019/11/20 16:30 EST    3.81   4.22 -999 -999 -999  45.9  49.3 1016.0 -9.9 -9.999 -99.9 -99.99 -9.99
2019/11/20 16:36 EST    3.70   4.12 -999 -999 -999  45.9  49.3 1016.1 -9.9 -9.999 -99.9 -99.99 -9.99
2019/11/20 16:42 EST    3.59   4.03 -999 -999 -999  45.7  49.1 1016.2 -9.9 -9.999 -99.9 -99.99 -9.99
2019/11/20 16:48 EST    3.48   3.90 -999 -999 -999  45.7  49.1 1016.2 -9.9 -9.999 -99.9 -99.99 -9.99
2019/11/20 16:54 EST    3.36   3.82 -999 -999 -999  45.7  49.1 1016.3 -9.9 -9.999 -99.9 -99.99 -9.99
2019/11/20 17:00 EST    3.25   3.71 -999 -999 -999  45.5  49.1 1016.4 -9.9 -9.999 -99.9 -99.99 -9.99
2019/11/20 17:06 EST    3.13   3.60 -999 -999 -999  45.7  49.1 1016.5 -9.9 -9.999 -99.9 -99.99 -9.99
2019/11/20 17:12 EST    3.01   3.50 -999 -999 -999  45.5  49.1 1016.5 -9.9 -9.999 -99.9 -99.99 -9.99
2019/11/20 17:18 EST    2.90   3.40 -999 -999 -999  45.5  49.1 1016.6 -9.9 -9.999 -99.9 -99.99 -9.99
2019/11/20 17:24 EST    2.79   3.29 -999 -999 -999  45.5  49.1 1016.7 -9.9 -9.999 -99.9 -99.99 -9.99
2019/11/20 17:30 EST    2.67   3.18 -999 -999 -999  45.7  49.1 1016.8 -9.9 -9.999 -99.9 -99.99 -9.99
2019/11/20 17:36 EST    2.56   3.06 -999 -999 -999  45.5  49.1 1016.8 -9.9 -9.999 -99.9 -99.99 -9.99
2019/11/20 17:42 EST    2.46   2.95 -999 -999 -999  45.3  49.1 1017.0 -9.9 -9.999 -99.9 -99.99 -9.99
2019/11/20 17:48 EST    2.35   2.85 -999 -999 -999  45.3  49.1 1017.0 -9.9 -9.999 -99.9 -99.99 -9.99
2019/11/20 17:54 EST    2.24   2.76 -999 -999 -999  45.3  49.1 1017.1 -9.9 -9.999 -99.9 -99.99 -9.99
2019/11/20 18:00 EST    2.14   2.64 -999 -999 -999  45.3  48.9 1017.2 -9.9 -9.999 -99.9 -99.99 -9.99
2019/11/20 18:06 EST    2.04   2.56 -999 -999 -999  45.3  48.9 1017.2 -9.9 -9.999 -99.9 -99.99 -9.99
2019/11/20 18:12 EST    1.95   2.46 -999 -999 -999  45.5  48.9 1017.3 -9.9 -9.999 -99.9 -99.99 -9.99
2019/11/20 18:18 EST    1.85   2.38 -999 -999 -999  45.3  48.9 1017.4 -9.9 -9.999 -99.9 -99.99 -9.99
2019/11/20 18:24 EST    1.76   2.28 -999 -999 -999  45.5  48.9 1017.4 -9.9 -9.999 -99.9 -99.99 -9.99
2019/11/20 18:30 EST    1.67   2.20 -999 -999 -999  45.3  48.9 1017.5 -9.9 -9.999 -99.9 -99.99 -9.99
2019/11/20 18:36 EST    1.58   2.10 -999 -999 -999  45.3  48.9 1017.6 -9.9 -9.999 -99.9 -99.99 -9.99
2019/11/20 18:42 EST    1.50   2.04 -999 -999 -999  45.3  48.9 1017.6 -9.9 -9.999 -99.9 -99.99 -9.99
2019/11/20 18:48 EST    1.42   1.96 -999 -999 -999  45.3  48.9 1017.7 -9.9 -9.999 -99.9 -99.99 -9.99
2019/11/20 18:54 EST    1.34   1.89 -999 -999 -999  45.3  48.9 1017.8 -9.9 -9.999 -99.9 -99.99 -9.99
2019/11/20 19:00 EST    1.26   1.83 -999 -999 -999  45.3  48.9 1017.8 -9.9 -9.999 -99.9 -99.99 -9.99
2019/11/20 19:06 EST    1.18   1.76 -999 -999 -999  45.3  48.7 1018.0 -9.9 -9.999 -99.9 -99.99 -9.99
2019/11/20 19:12 EST    1.11   1.71 -999 -999 -999  45.1  48.7 1017.9 -9.9 -9.999 -99.9 -99.99 -9.99
2019/11/20 19:18 EST    1.04   1.63 -999 -999 -999  45.1  48.7 1018.0 -9.9 -9.999 -99.9 -99.99 -9.99
2019/11/20 19:24 EST    0.97   1.59 -999 -999 -999  45.1  48.7 1018.0 -9.9 -9.999 -99.9 -99.99 -9.99
2019/11/20 19:30 EST    0.90   1.51 -999 -999 -999  45.1  48.7 1018.2 -9.9 -9.999 -99.9 -99.99 -9.99
2019/11/20 19:36 EST    0.83   1.45 -999 -999 -999  45.0  48.7 1018.3 -9.9 -9.999 -99.9 -99.99 -9.99
2019/11/20 19:42 EST    0.77   1.39 -999 -999 -999  44.8  48.7 1018.4 -9.9 -9.999 -99.9 -99.99 -9.99
2019/11/20 19:48 EST    0.71   1.35 -999 -999 -999  44.8  48.7 1018.4 -9.9 -9.999 -99.9 -99.99 -9.99
2019/11/20 19:54 EST    0.64   1.29 -999 -999 -999  44.8  48.7 1018.5 -9.9 -9.999 -99.9 -99.99 -9.99
2019/11/20 20:00 EST    0.59   1.20 -999 -999 -999  44.8  48.7 1018.6 -9.9 -9.999 -99.9 -99.99 -9.99
2019/11/20 20:06 EST    0.53   1.16 -999 -999 -999  44.6  48.7 1018.6 -9.9 -9.999 -99.9 -99.99 -9.99
2019/11/20 20:12 EST    0.47   1.06 -999 -999 -999  44.6  48.7 1018.7 -9.9 -9.999 -99.9 -99.99 -9.99
2019/11/20 20:18 EST    0.42   1.05 -999 -999 -999  44.4  48.7 1018.7 -9.9 -9.999 -99.9 -99.99 -9.99
2019/11/20 20:24 EST    0.37   0.98 -999 -999 -999  44.6  48.7 1018.7 -9.9 -9.999 -99.9 -99.99 -9.99
2019/11/20 20:30 EST    0.33   0.92 -999 -999 -999  44.2  48.6 1018.8 -9.9 -9.999 -99.9 -99.99 -9.99
2019/11/20 20:36 EST    0.29   0.87 -999 -999 -999  44.2  48.6 1018.8 -9.9 -9.999 -99.9 -99.99 -9.99
2019/11/20 20:42 EST    0.25   0.83 -999 -999 -999  44.1  48.6 1018.8 -9.9 -9.999 -99.9 -99.99 -9.99
2019/11/20 20:48 EST    0.22   0.79 -999 -999 -999  44.1  48.6 1018.9 -9.9 -9.999 -99.9 -99.99 -9.99
2019/11/20 20:54 EST    0.19   0.73 -999 -999 -999  44.1  48.6 1018.9 -9.9 -9.999 -99.9 -99.99 -9.99
2019/11/20 21:00 EST    0.16   0.70 -999 -999 -999  44.1  48.6 1019.0 -9.9 -9.999 -99.9 -99.99 -9.99
2019/11/20 21:06 EST    0.15   0.68 -999 -999 -999  44.1  48.6 1019.0 -9.9 -9.999 -99.9 -99.99 -9.99
2019/11/20 21:12 EST    0.14   0.66 -999 -999 -999  43.9  48.6 1019.0 -9.9 -9.999 -99.9 -99.99 -9.99
2019/11/20 21:18 EST    0.13   0.63 -999 -999 -999  43.9  48.6 1019.0 -9.9 -9.999 -99.9 -99.99 -9.99
2019/11/20 21:24 EST    0.13   0.63 -999 -999 -999  43.9  48.4 1018.9 -9.9 -9.999 -99.9 -99.99 -9.99
2019/11/20 21:30 EST    0.14   0.63 -999 -999 -999  43.9  48.4 1019.0 -9.9 -9.999 -99.9 -99.99 -9.99
2019/11/20 21:36 EST    0.16   0.65 -999 -999 -999  43.9  48.4 1019.1 -9.9 -9.999 -99.9 -99.99 -9.99
2019/11/20 21:42 EST    0.19   0.67 -999 -999 -999  43.7  48.4 1019.2 -9.9 -9.999 -99.9 -99.99 -9.99
2019/11/20 21:48 EST    0.22   0.69 -999 -999 -999  43.7  48.4 1019.2 -9.9 -9.999 -99.9 -99.99 -9.99
2019/11/20 21:54 EST    0.26   0.73 -999 -999 -999  43.7  48.4 1019.2 -9.9 -9.999 -99.9 -99.99 -9.99
2019/11/20 22:00 EST    0.31   0.79 -999 -999 -999  43.5  48.4 1019.4 -9.9 -9.999 -99.9 -99.99 -9.99
2019/11/20 22:06 EST    0.37   0.86 -999 -999 -999  43.5  48.4 1019.4 -9.9 -9.999 -99.9 -99.99 -9.99
2019/11/20 22:12 EST    0.44   0.94 -999 -999 -999  43.5  48.4 1019.6 -9.9 -9.999 -99.9 -99.99 -9.99
2019/11/20 22:18 EST    0.51   1.02 -999 -999 -999  43.5  48.4 1019.6 -9.9 -9.999 -99.9 -99.99 -9.99
2019/11/20 22:24 EST    0.60   1.13 -999 -999 -999  43.5  48.4 1019.6 -9.9 -9.999 -99.9 -99.99 -9.99
2019/11/20 22:30 EST    0.69   1.22 -999 -999 -999  43.5  48.4 1019.7 -9.9 -9.999 -99.9 -99.99 -9.99
2019/11/20 22:36 EST    0.78   1.33 -999 -999 -999  43.5  48.4 1019.6 -9.9 -9.999 -99.9 -99.99 -9.99
2019/11/20 22:42 EST    0.89   1.40 -999 -999 -999  43.5  48.4 1019.7 -9.9 -9.999 -99.9 -99.99 -9.99
2019/11/20 22:48 EST    1.00   1.56 -999 -999 -999  43.5  48.4 1019.7 -9.9 -9.999 -99.9 -99.99 -9.99
2019/11/20 22:54 EST    1.12   1.70 -999 -999 -999  43.5  48.4 1019.7 -9.9 -9.999 -99.9 -99.99 -9.99
2019/11/20 23:00 EST    1.24   1.81 -999 -999 -999  43.7  48.4 1019.7 -9.9 -9.999 -99.9 -99.99 -9.99
2019/11/20 23:06 EST    1.37   1.94 -999 -999 -999  43.7  48.4 1019.7 -9.9 -9.999 -99.9 -99.99 -9.99
2019/11/20 23:12 EST    1.50   2.10 -999 -999 -999  43.5  48.4 1019.8 -9.9 -9.999 -99.9 -99.99 -9.99
2019/11/20 23:18 EST    1.64   2.24 -999 -999 -999  43.7  48.4 1019.8 -9.9 -9.999 -99.9 -99.99 -9.99
2019/11/20 23:24 EST    1.78   2.40 -999 -999 -999  43.7  48.2 1019.8 -9.9 -9.999 -99.9 -99.99 -9.99
2019/11/20 23:30 EST    1.92   2.53 -999 -999 -999  43.5  48.2 1019.8 -9.9 -9.999 -99.9 -99.99 -9.99
2019/11/20 23:36 EST    2.07   2.65 -999 -999 -999  43.7  48.2 1019.9 -9.9 -9.999 -99.9 -99.99 -9.99
2019/11/20 23:42 EST    2.21   2.80 -999 -999 -999  43.5  48.2 1019.9 -9.9 -9.999 -99.9 -99.99 -9.99
2019/11/20 23:48 EST    2.36   2.96 -999 -999 -999  43.5  48.2 1019.9 -9.9 -9.999 -99.9 -99.99 -9.99
2019/11/20 23:54 EST    2.50   3.12 -999 -999 -999  43.3  48.2 1020.0 -9.9 -9.999 -99.9 -99.99 -9.99
2019/11/21 00:00 EST    2.65   3.25 -999 -999 -999  43.5  48.2 1020.0 -9.9 -9.999 -99.9 -99.99 -9.99
2019/11/21 00:06 EST    2.79   3.40 -999 -999 -999  43.2  48.2 1019.9 -9.9 -9.999 -99.9 -99.99 -9.99
2019/11/21 00:12 EST    2.93   3.55 -999 -999 -999  43.2  48.2 1019.9 -9.9 -9.999 -99.9 -99.99 -9.99
2019/11/21 00:18 EST    3.07   3.69 -999 -999 -999  43.3  48.2 1019.9 -9.9 -9.999 -99.9 -99.99 -9.99
2019/11/21 00:24 EST    3.20   3.86 -999 -999 -999  43.2  48.2 1019.9 -9.9 -9.999 -99.9 -99.99 -9.99
2019/11/21 00:30 EST    3.33   4.00 -999 -999 -999  43.3  48.2 1019.9 -9.9 -9.999 -99.9 -99.99 -9.99
2019/11/21 00:36 EST    3.46   4.15 -999 -999 -999  43.3  48.2 1019.9 -9.9 -9.999 -99.9 -99.99 -9.99
2019/11/21 00:42 EST    3.59   4.29 -999 -999 -999  43.2  48.2 1020.0 -9.9 -9.999 -99.9 -99.99 -9.99
2019/11/21 00:48 EST    3.71   4.44 -999 -999 -999  43.2  48.2 1020.0 -9.9 -9.999 -99.9 -99.99 -9.99
2019/11/21 00:54 EST    3.82   4.59 -999 -999 -999  43.2  48.4 1020.1 -9.9 -9.999 -99.9 -99.99 -9.99
2019/11/21 01:00 EST    3.93   4.73 -999 -999 -999  43.0  48.4 1020.1 -9.9 -9.999 -99.9 -99.99 -9.99
2019/11/21 01:06 EST    4.04   4.88 -999 -999 -999  43.0  48.4 1020.1 -9.9 -9.999 -99.9 -99.99 -9.99
2019/11/21 01:12 EST    4.14   5.00 -999 -999 -999  42.8  48.4 1020.1 -9.9 -9.999 -99.9 -99.99 -9.99
2019/11/21 01:18 EST    4.23   5.13 -999 -999 -999  43.0  48.6 1020.2 -9.9 -9.999 -99.9 -99.99 -9.99
2019/11/21 01:24 EST    4.32   5.23 -999 -999 -999  42.8  48.6 1020.3 -9.9 -9.999 -99.9 -99.99 -9.99
2019/11/21 01:30 EST    4.41   5.33 -999 -999 -999  42.8  48.6 1020.3 -9.9 -9.999 -99.9 -99.99 -9.99
2019/11/21 01:36 EST    4.48   5.40 -999 -999 -999  42.8  48.6 1020.4 -9.9 -9.999 -99.9 -99.99 -9.99
2019/11/21 01:42 EST    4.56   5.45 -999 -999 -999  42.8  48.6 1020.4 -9.9 -9.999 -99.9 -99.99 -9.99
2019/11/21 01:48 EST    4.62   5.53 -999 -999 -999  42.6  48.6 1020.5 -9.9 -9.999 -99.9 -99.99 -9.99
2019/11/21 01:54 EST    4.69   5.59 -999 -999 -999  42.8  48.6 1020.6 -9.9 -9.999 -99.9 -99.99 -9.99
2019/11/21 02:00 EST    4.74   5.60 -999 -999 -999  42.8  48.7 1020.7 -9.9 -9.999 -99.9 -99.99 -9.99
2019/11/21 02:06 EST    4.80   5.67 -999 -999 -999  42.6  48.7 1020.7 -9.9 -9.999 -99.9 -99.99 -9.99
2019/11/21 02:12 EST    4.84   5.69 -999 -999 -999  42.4  48.7 1020.7 -9.9 -9.999 -99.9 -99.99 -9.99
2019/11/21 02:18 EST    4.88   5.73 -999 -999 -999  42.6  48.7 1020.9 -9.9 -9.999 -99.9 -99.99 -9.99
2019/11/21 02:24 EST    4.92   5.73 -999 -999 -999  42.4  48.7 1021.0 -9.9 -9.999 -99.9 -99.99 -9.99
2019/11/21 02:30 EST    4.95   5.75 -999 -999 -999  42.4  48.7 1021.0 -9.9 -9.999 -99.9 -99.99 -9.99
2019/11/21 02:36 EST    4.97   5.75 -999 -999 -999  42.4  48.7 1021.0 -9.9 -9.999 -99.9 -99.99 -9.99
2019/11/21 02:42 EST    4.99   5.74 -999 -999 -999  42.3  48.7 1021.0 -9.9 -9.999 -99.9 -99.99 -9.99
2019/11/21 02:48 EST    5.00   5.72 -999 -999 -999  42.3  48.7 1021.0 -9.9 -9.999 -99.9 -99.99 -9.99
2019/11/21 02:54 EST    5.01   5.71 -999 -999 -999  42.4  48.7 1021.0 -9.9 -9.999 -99.9 -99.99 -9.99
2019/11/21 03:00 EST    5.01   5.69 -999 -999 -999  42.4  48.7 1021.0 -9.9 -9.999 -99.9 -99.99 -9.99
2019/11/21 03:06 EST    5.01   5.66 -999 -999 -999  42.4  48.7 1021.0 -9.9 -9.999 -99.9 -99.99 -9.99
2019/11/21 03:12 EST    5.00   5.63 -999 -999 -999  42.1  48.7 1021.0 -9.9 -9.999 -99.9 -99.99 -9.99
2019/11/21 03:18 EST    4.99   5.59 -999 -999 -999  42.3  48.7 1021.1 -9.9 -9.999 -99.9 -99.99 -9.99
2019/11/21 03:24 EST    4.97   5.56 -999 -999 -999  42.3  48.7 1021.2 -9.9 -9.999 -99.9 -99.99 -9.99
2019/11/21 03:30 EST    4.94   5.50 -999 -999 -999  42.3  48.7 1021.1 -9.9 -9.999 -99.9 -99.99 -9.99
2019/11/21 03:36 EST    4.91   5.44 -999 -999 -999  42.1  48.7 1021.1 -9.9 -9.999 -99.9 -99.99 -9.99
2019/11/21 03:42 EST    4.87   5.39 -999 -999 -999  41.9  48.7 1020.9 -9.9 -9.999 -99.9 -99.99 -9.99
2019/11/21 03:48 EST    4.82   5.34 -999 -999 -999  41.7  48.6 1020.8 -9.9 -9.999 -99.9 -99.99 -9.99
2019/11/21 03:54 EST    4.77   5.27 -999 -999 -999  42.1  48.6 1021.1 -9.9 -9.999 -99.9 -99.99 -9.99
2019/11/21 04:00 EST    4.72   5.20 -999 -999 -999  42.1  48.6 1021.2 -9.9 -9.999 -99.9 -99.99 -9.99
2019/11/21 04:06 EST    4.66   5.12 -999 -999 -999  42.1  48.6 1021.2 -9.9 -9.999 -99.9 -99.99 -9.99
2019/11/21 04:12 EST    4.59   5.06 -999 -999 -999  41.9  48.6 1021.2 -9.9 -9.999 -99.9 -99.99 -9.99
2019/11/21 04:18 EST    4.52   4.98 -999 -999 -999  41.7  48.6 1021.3 -9.9 -9.999 -99.9 -99.99 -9.99
2019/11/21 04:24 EST    4.45   4.90 -999 -999 -999  41.9  48.6 1021.3 -9.9 -9.999 -99.9 -99.99 -9.99
2019/11/21 04:30 EST    4.36   4.82 -999 -999 -999  41.7  48.6 1021.3 -9.9 -9.999 -99.9 -99.99 -9.99
2019/11/21 04:36 EST    4.28   4.72 -999 -999 -999  41.7  48.7 1021.2 -9.9 -9.999 -99.9 -99.99 -9.99
2019/11/21 04:42 EST    4.19   4.68 -999 -999 -999  41.7  48.7 1021.3 -9.9 -9.999 -99.9 -99.99 -9.99
2019/11/21 04:48 EST    4.10   4.59 -999 -999 -999  41.7  48.7 1021.3 -9.9 -9.999 -99.9 -99.99 -9.99
2019/11/21 04:54 EST    4.00   4.50 -999 -999 -999  41.5  48.7 1021.4 -9.9 -9.999 -99.9 -99.99 -9.99
2019/11/21 05:00 EST    3.90   4.42 -999 -999 -999  41.7  48.7 1021.5 -9.9 -9.999 -99.9 -99.99 -9.99
2019/11/21 05:06 EST    3.80   4.33 -999 -999 -999  41.7  48.7 1021.5 -9.9 -9.999 -99.9 -99.99 -9.99
2019/11/21 05:12 EST    3.70   4.25 -999 -999 -999  41.5  48.9 1021.6 -9.9 -9.999 -99.9 -99.99 -9.99
2019/11/21 05:18 EST    3.59   4.16 -999 -999 -999  41.4  48.7 1021.6 -9.9 -9.999 -99.9 -99.99 -9.99
2019/11/21 05:24 EST    3.48   4.04 -999 -999 -999  41.4  48.7 1021.6 -9.9 -9.999 -99.9 -99.99 -9.99
2019/11/21 05:30 EST    3.37   3.93 -999 -999 -999  41.5  48.7 1021.8 -9.9 -9.999 -99.9 -99.99 -9.99
2019/11/21 05:36 EST    3.27   3.88 -999 -999 -999  41.4  48.7 1022.0 -9.9 -9.999 -99.9 -99.99 -9.99
2019/11/21 05:42 EST    3.16   3.81 -999 -999 -999  40.5  48.7 1022.0 -9.9 -9.999 -99.9 -99.99 -9.99
2019/11/21 05:48 EST    3.05   3.71 -999 -999 -999  41.2  48.7 1022.1 -9.9 -9.999 -99.9 -99.99 -9.99
2019/11/21 05:54 EST    2.94   3.63 -999 -999 -999  41.4  48.7 1022.2 -9.9 -9.999 -99.9 -99.99 -9.99
2019/11/21 06:00 EST    2.83   3.51 -999 -999 -999  41.4  48.7 1022.3 -9.9 -9.999 -99.9 -99.99 -9.99
2019/11/21 06:06 EST    2.73   3.43 -999 -999 -999  40.6  48.7 1022.3 -9.9 -9.999 -99.9 -99.99 -9.99
2019/11/21 06:12 EST    2.62   3.33 -999 -999 -999  40.1  48.7 1022.5 -9.9 -9.999 -99.9 -99.99 -9.99
2019/11/21 06:18 EST    2.52   3.24 -999 -999 -999  39.7  48.7 1022.6 -9.9 -9.999 -99.9 -99.99 -9.99
2019/11/21 06:24 EST    2.42   3.16 -999 -999 -999  39.6  48.6 1022.7 -9.9 -9.999 -99.9 -99.99 -9.99
2019/11/21 06:30 EST    2.32   3.06 -999 -999 -999  39.7  48.4 1022.8 -9.9 -9.999 -99.9 -99.99 -9.99
2019/11/21 06:36 EST    2.22   2.97 -999 -999 -999  40.6  48.2 1022.8 -9.9 -9.999 -99.9 -99.99 -9.99
2019/11/21 06:42 EST    2.13   2.85 -999 -999 -999  40.8  48.0 1022.7 -9.9 -9.999 -99.9 -99.99 -9.99
2019/11/21 06:48 EST    2.04   2.79 -999 -999 -999  40.8  47.8 1022.7 -9.9 -9.999 -99.9 -99.99 -9.99
2019/11/21 06:54 EST    1.95   2.73 -999 -999 -999  41.0  47.8 1022.8 -9.9 -9.999 -99.9 -99.99 -9.99
2019/11/21 07:00 EST    1.86   2.65 -999 -999 -999  41.0  47.8 1022.8 -9.9 -9.999 -99.9 -99.99 -9.99
2019/11/21 07:06 EST    1.78   2.56 -999 -999 -999  41.0  47.8 1022.7 -9.9 -9.999 -99.9 -99.99 -9.99
2019/11/21 07:12 EST    1.69   2.50 -999 -999 -999  41.2  47.8 1022.8 -9.9 -9.999 -99.9 -99.99 -9.99
2019/11/21 07:18 EST    1.61   2.43 -999 -999 -999  41.5  48.0 1022.7 -9.9 -9.999 -99.9 -99.99 -9.99
2019/11/21 07:24 EST    1.53   2.35 -999 -999 -999  41.9  48.0 1022.7 -9.9 -9.999 -99.9 -99.99 -9.99
2019/11/21 07:30 EST    1.46   2.28 -999 -999 -999  41.9  48.0 1022.8 -9.9 -9.999 -99.9 -99.99 -9.99
2019/11/21 07:36 EST    1.38   2.22 -999 -999 -999  42.1  48.0 1022.8 -9.9 -9.999 -99.9 -99.99 -9.99
2019/11/21 07:42 EST    1.31   2.15 -999 -999 -999  42.3  48.0 1022.9 -9.9 -9.999 -99.9 -99.99 -9.99
2019/11/21 07:48 EST    1.24   2.09 -999 -999 -999  42.3  48.0 1022.9 -9.9 -9.999 -99.9 -99.99 -9.99
2019/11/21 07:54 EST    1.17   2.02 -999 -999 -999  41.9  47.8 1023.0 -9.9 -9.999 -99.9 -99.99 -9.99
2019/11/21 08:00 EST    1.10   1.96 -999 -999 -999  42.4  47.8 1023.0 -9.9 -9.999 -99.9 -99.99 -9.99
2019/11/21 08:06 EST    1.04   1.89 -999 -999 -999  43.0  47.8 1022.9 -9.9 -9.999 -99.9 -99.99 -9.99
2019/11/21 08:12 EST    0.98   1.82 -999 -999 -999  43.3  47.8 1022.9 -9.9 -9.999 -99.9 -99.99 -9.99
2019/11/21 08:18 EST    0.92   1.75 -999 -999 -999  43.9  47.8 1022.9 -9.9 -9.999 -99.9 -99.99 -9.99
2019/11/21 08:24 EST    0.86   1.70 -999 -999 -999  43.7  48.0 1023.0 -9.9 -9.999 -99.9 -99.99 -9.99
2019/11/21 08:30 EST    0.81   1.63 -999 -999 -999  43.9  48.0 1023.0 -9.9 -9.999 -99.9 -99.99 -9.99
2019/11/21 08:36 EST    0.75   1.59 -999 -999 -999  43.9  48.0 1023.0 -9.9 -9.999 -99.9 -99.99 -9.99
2019/11/21 08:42 EST    0.70   1.52 -999 -999 -999  43.7  48.0 1023.1 -9.9 -9.999 -99.9 -99.99 -9.99
2019/11/21 08:48 EST    0.66   1.49 -999 -999 -999  43.7  48.0 1023.1 -9.9 -9.999 -99.9 -99.99 -9.99
2019/11/21 08:54 EST    0.62   1.42 -999 -999 -999  43.7  48.0 1023.1 -9.9 -9.999 -99.9 -99.99 -9.99
2019/11/21 09:00 EST    0.58   1.41 -999 -999 -999  43.7  48.0 1023.0 -9.9 -9.999 -99.9 -99.99 -9.99
2019/11/21 09:06 EST    0.55   1.38 -999 -999 -999  43.7  48.0 1022.9 -9.9 -9.999 -99.9 -99.99 -9.99
2019/11/21 09:12 EST    0.52   1.37 -999 -999 -999  43.9  48.0 1022.9 -9.9 -9.999 -99.9 -99.99 -9.99
2019/11/21 09:18 EST    0.50   1.35 -999 -999 -999  44.2  48.2 1022.9 -9.9 -9.999 -99.9 -99.99 -9.99
2019/11/21 09:24 EST    0.48   1.35 -999 -999 -999  44.1  48.2 1022.9 -9.9 -9.999 -99.9 -99.99 -9.99
2019/11/21 09:30 EST    0.47   1.35 -999 -999 -999  44.4  48.2 1022.9 -9.9 -9.999 -99.9 -99.99 -9.99
2019/11/21 09:36 EST    0.46   1.37 -999 -999 -999  44.6  48.2 1023.0 -9.9 -9.999 -99.9 -99.99 -9.99
2019/11/21 09:42 EST    0.47   1.37 -999 -999 -999  45.3  48.0 1023.1 -9.9 -9.999 -99.9 -99.99 -9.99
2019/11/21 09:48 EST    0.48   1.39 -999 -999 -999  45.0  48.0 1023.1 -9.9 -9.999 -99.9 -99.99 -9.99
2019/11/21 09:54 EST    0.49   1.43 -999 -999 -999  45.1  48.0 1023.1 -9.9 -9.999 -99.9 -99.99 -9.99
2019/11/21 10:00 EST    0.52   1.47 -999 -999 -999  45.7  48.0 1023.0 -9.9 -9.999 -99.9 -99.99 -9.99
2019/11/21 10:06 EST    0.55   1.54 -999 -999 -999  46.0  48.0 1022.9 -9.9 -9.999 -99.9 -99.99 -9.99
2019/11/21 10:12 EST    0.59   1.57 -999 -999 -999  46.0  48.2 1023.0 -9.9 -9.999 -99.9 -99.99 -9.99
2019/11/21 10:18 EST    0.64   1.63 -999 -999 -999  45.9  48.2 1023.0 -9.9 -9.999 -99.9 -99.99 -9.99
2019/11/21 10:24 EST    0.70   1.70 -999 -999 -999  45.9  48.2 1023.0 -9.9 -9.999 -99.9 -99.99 -9.99
2019/11/21 10:30 EST    0.77   1.80 -999 -999 -999  46.4  48.2 1022.9 -9.9 -9.999 -99.9 -99.99 -9.99
2019/11/21 10:36 EST    0.85   1.90 -999 -999 -999  46.6  48.2 1022.9 -9.9 -9.999 -99.9 -99.99 -9.99
2019/11/21 10:42 EST    0.93   2.01 -999 -999 -999  46.6  48.2 1022.7 -9.9 -9.999 -99.9 -99.99 -9.99
2019/11/21 10:48 EST    1.02   2.10 -999 -999 -999  47.1  48.2 1022.6 -9.9 -9.999 -99.9 -99.99 -9.99
2019/11/21 10:54 EST    1.12   2.22 -999 -999 -999  46.9  48.2 1022.5 -9.9 -9.999 -99.9 -99.99 -9.99
2019/11/21 11:00 EST    1.23   2.36 -999 -999 -999  47.8  48.4 1022.5 -9.9 -9.999 -99.9 -99.99 -9.99
2019/11/21 11:06 EST    1.34   2.48 -999 -999 -999  47.8  48.4 1022.3 -9.9 -9.999 -99.9 -99.99 -9.99
2019/11/21 11:12 EST    1.46   2.62 -999 -999 -999  47.7  48.6 1022.2 -9.9 -9.999 -99.9 -99.99 -9.99
2019/11/21 11:18 EST    1.59   2.74 -999 -999 -999  48.7  48.6 1022.2 -9.9 -9.999 -99.9 -99.99 -9.99
2019/11/21 11:24 EST    1.72   2.89 -999 -999 -999  48.6  48.7 1022.1 -9.9 -9.999 -99.9 -99.99 -9.99
2019/11/21 11:30 EST    1.85   3.02 -999 -999 -999  48.6  48.7 1021.9 -9.9 -9.999 -99.9 -99.99 -9.99
2019/11/21 11:36 EST    1.99   3.14 -999 -999 -999  49.1  48.7 1021.8 -9.9 -9.999 -99.9 -99.99 -9.99
2019/11/21 11:42 EST    2.14   3.26 -999 -999 -999  49.6  48.7 1021.7 -9.9 -9.999 -99.9 -99.99 -9.99
2019/11/21 11:48 EST    2.28   3.39 -999 -999 -999  50.2  48.7 1021.6 -9.9 -9.999 -99.9 -99.99 -9.99
2019/11/21 11:54 EST    2.43   3.52 -999 -999 -999  50.7  48.7 1021.5 -9.9 -9.999 -99.9 -99.99 -9.99
2019/11/21 12:00 EST    2.58   3.64 -999 -999 -999  52.3  48.9 1021.5 -9.9 -9.999 -99.9 -99.99 -9.99
2019/11/21 12:06 EST    2.73   3.77 -999 -999 -999  50.9  48.9 1021.4 -9.9 -9.999 -99.9 -99.99 -9.99
2019/11/21 12:12 EST    2.88   3.88 -999 -999 -999  50.4  48.9 1021.3 -9.9 -9.999 -99.9 -99.99 -9.99
2019/11/21 12:18 EST    3.03   4.01 -999 -999 -999  52.0  48.9 1021.2 -9.9 -9.999 -99.9 -99.99 -9.99
2019/11/21 12:24 EST    3.17   4.12 -999 -999 -999  50.5  48.9 1021.1 -9.9 -9.999 -99.9 -99.99 -9.99
2019/11/21 12:30 EST    3.32   4.25 -999 -999 -999  52.5  49.1 1020.9 -9.9 -9.999 -99.9 -99.99 -9.99
2019/11/21 12:36 EST    3.46   4.36 -999 -999 -999  53.1  49.1 1020.9 -9.9 -9.999 -99.9 -99.99 -9.99
2019/11/21 12:42 EST    3.60   4.47 -999 -999 -999  51.6  49.1 1020.8 -9.9 -9.999 -99.9 -99.99 -9.99
2019/11/21 12:48 EST    3.73   4.57 -999 -999 -999  52.5  49.1 1020.7 -9.9 -9.999 -99.9 -99.99 -9.99
2019/11/21 12:54 EST    3.86   4.69 -999 -999 -999  51.6  49.1 1020.5 -9.9 -9.999 -99.9 -99.99 -9.99
2019/11/21 13:00 EST    3.99   4.78 -999 -999 -999  51.6  49.1 1020.4 -9.9 -9.999 -99.9 -99.99 -9.99
2019/11/21 13:06 EST    4.11   4.90 -999 -999 -999  52.0  49.1 1020.4 -9.9 -9.999 -99.9 -99.99 -9.99
2019/11/21 13:12 EST    4.22   5.00 -999 -999 -999  52.7  49.1 1020.4 -9.9 -9.999 -99.9 -99.99 -9.99
2019/11/21 13:18 EST    4.33   5.09 -999 -999 -999  52.7  49.3 1020.4 -9.9 -9.999 -99.9 -99.99 -9.99
2019/11/21 13:24 EST    4.43   5.17 -999 -999 -999  53.6  49.3 1020.3 -9.9 -9.999 -99.9 -99.99 -9.99
2019/11/21 13:30 EST    4.53   5.27 -999 -999 -999  53.2  49.3 1020.3 -9.9 -9.999 -99.9 -99.99 -9.99
2019/11/21 13:36 EST    4.62   5.37 -999 -999 -999  53.6  49.3 1020.3 -9.9 -9.999 -99.9 -99.99 -9.99
2019/11/21 13:42 EST    4.71   5.45 -999 -999 -999  53.8  49.3 1020.2 -9.9 -9.999 -99.9 -99.99 -9.99
2019/11/21 13:48 EST    4.79   5.55 -999 -999 -999  54.1  49.3 1020.1 -9.9 -9.999 -99.9 -99.99 -9.99
2019/11/21 13:54 EST    4.86   5.61 -999 -999 -999  53.8  49.3 1020.1 -9.9 -9.999 -99.9 -99.99 -9.99
2019/11/21 14:00 EST    4.93   5.68 -999 -999 -999  54.0  49.3 1020.1 -9.9 -9.999 -99.9 -99.99 -9.99
2019/11/21 14:06 EST    4.99   5.75 -999 -999 -999  54.5  49.3 1020.0 -9.9 -9.999 -99.9 -99.99 -9.99
2019/11/21 14:12 EST    5.05   5.83 -999 -999 -999  53.6  49.3 1019.9 -9.9 -9.999 -99.9 -99.99 -9.99
2019/11/21 14:18 EST    5.10   5.90 -999 -999 -999  54.5  49.3 1019.9 -9.9 -9.999 -99.9 -99.99 -9.99
2019/11/21 14:24 EST    5.14   5.95 -999 -999 -999  54.3  49.5 1019.8 -9.9 -9.999 -99.9 -99.99 -9.99
2019/11/21 14:30 EST    5.18   6.00 -999 -999 -999  53.8  49.5 1019.8 -9.9 -9.999 -99.9 -99.99 -9.99
2019/11/21 14:36 EST    5.21   6.04 -999 -999 -999  53.2  49.5 1019.7 -9.9 -9.999 -99.9 -99.99 -9.99
2019/11/21 14:42 EST    5.24   6.07 -999 -999 -999  53.1  49.5 1019.7 -9.9 -9.999 -99.9 -99.99 -9.99
2019/11/21 14:48 EST    5.26   6.10 -999 -999 -999  53.1  49.5 1019.7 -9.9 -9.999 -99.9 -99.99 -9.99
2019/11/21 14:54 EST    5.28   6.13 -999 -999 -999  53.1  49.5 1019.7 -9.9 -9.999 -99.9 -99.99 -9.99
2019/11/21 15:00 EST    5.29   6.15 -999 -999 -999  53.1  49.5 1019.7 -9.9 -9.999 -99.9 -99.99 -9.99
2019/11/21 15:06 EST    5.29   6.15 -999 -999 -999  53.6  49.5 1019.7 -9.9 -9.999 -99.9 -99.99 -9.99
2019/11/21 15:12 EST    5.29   6.16 -999 -999 -999  54.3  49.5 1019.7 -9.9 -9.999 -99.9 -99.99 -9.99
2019/11/21 15:18 EST    5.29   6.10 -999 -999 -999  54.5  49.5 1019.6 -9.9 -9.999 -99.9 -99.99 -9.99
2019/11/21 15:24 EST    5.28   6.15 -999 -999 -999  54.0  49.6 1019.6 -9.9 -9.999 -99.9 -99.99 -9.99
2019/11/21 15:30 EST    5.26   6.11 -999 -999 -999  53.8  49.6 1019.6 -9.9 -9.999 -99.9 -99.99 -9.99
2019/11/21 15:36 EST    5.24   6.08 -999 -999 -999  53.2  49.6 1019.4 -9.9 -9.999 -99.9 -99.99 -9.99
2019/11/21 15:42 EST    5.21   6.04 -999 -999 -999  53.2  49.6 1019.4 -9.9 -9.999 -99.9 -99.99 -9.99
2019/11/21 15:48 EST    5.18   6.01 -999 -999 -999  52.9  49.6 1019.4 -9.9 -9.999 -99.9 -99.99 -9.99
2019/11/21 15:54 EST    5.14   5.98 -999 -999 -999  52.7  49.6 1019.4 -9.9 -9.999 -99.9 -99.99 -9.99
2019/11/21 16:00 EST    5.10   5.93 -999 -999 -999  52.5  49.6 1019.3 -9.9 -9.999 -99.9 -99.99 -9.99
2019/11/21 16:06 EST    5.05   5.89 -999 -999 -999  52.3  49.6 1019.3 -9.9 -9.999 -99.9 -99.99 -9.99
2019/11/21 16:12 EST    4.99   5.86 -999 -999 -999  52.2  49.6 1019.3 -9.9 -9.999 -99.9 -99.99 -9.99
2019/11/21 16:18 EST    4.93   5.82 -999 -999 -999  52.0  49.6 1019.3 -9.9 -9.999 -99.9 -99.99 -9.99
2019/11/21 16:24 EST    4.87   5.76 -999 -999 -999  51.8  49.6 1019.3 -9.9 -9.999 -99.9 -99.99 -9.99
2019/11/21 16:30 EST    4.80   5.71 -999 -999 -999  51.8  49.6 1019.1 -9.9 -9.999 -99.9 -99.99 -9.99
2019/11/21 16:36 EST    4.72   5.66 -999 -999 -999  51.6  49.6 1019.2 -9.9 -9.999 -99.9 -99.99 -9.99
2019/11/21 16:42 EST    4.64   5.60 -999 -999 -999  51.4  49.6 1019.5 -9.9 -9.999 -99.9 -99.99 -9.99
2019/11/21 16:48 EST    4.56   5.53 -999 -999 -999  51.3  49.6 1019.5 -9.9 -9.999 -99.9 -99.99 -9.99
2019/11/21 16:54 EST    4.47   5.46 -999 -999 -999  51.3  49.6 1019.3 -9.9 -9.999 -99.9 -99.99 -9.99
2019/11/21 17:00 EST    4.38   5.39 -999 -999 -999  51.3  49.6 1019.3 -9.9 -9.999 -99.9 -99.99 -9.99
2019/11/21 17:06 EST    4.28   5.33 -999 -999 -999  51.1  49.6 1019.3 -9.9 -9.999 -99.9 -99.99 -9.99
2019/11/21 17:12 EST    4.18   5.25 -999 -999 -999  51.1  49.6 1019.3 -9.9 -9.999 -99.9 -99.99 -9.99
2019/11/21 17:18 EST    4.08   5.15 -999 -999 -999  50.7  49.6 1019.1 -9.9 -9.999 -99.9 -99.99 -9.99
2019/11/21 17:24 EST    3.97   5.10 -999 -999 -999  50.5  49.6 1019.2 -9.9 -9.999 -99.9 -99.99 -9.99
2019/11/21 17:30 EST    3.86   5.04 -999 -999 -999  50.5  49.6 1019.2 -9.9 -9.999 -99.9 -99.99 -9.99
2019/11/21 17:36 EST    3.75   4.95 -999 -999 -999  50.4  49.6 1019.2 -9.9 -9.999 -99.9 -99.99 -9.99
2019/11/21 17:42 EST    3.64   4.87 -999 -999 -999  50.5  49.6 1019.1 -9.9 -9.999 -99.9 -99.99 -9.99
2019/11/21 17:48 EST    3.53   4.78 -999 -999 -999  50.5  49.6 1019.1 -9.9 -9.999 -99.9 -99.99 -9.99
2019/11/21 17:54 EST    3.41   4.68 -999 -999 -999  50.5  49.6 1019.0 -9.9 -9.999 -99.9 -99.99 -9.99
2019/11/21 18:00 EST    3.30   4.58 -999 -999 -999  50.5  49.6 1019.2 -9.9 -9.999 -99.9 -99.99 -9.99
2019/11/21 18:06 EST    3.18   4.48 -999 -999 -999  50.5  49.6 1019.2 -9.9 -9.999 -99.9 -99.99 -9.99
2019/11/21 18:12 EST    3.06   4.37 -999 -999 -999  50.4  49.6 1019.1 -9.9 -9.999 -99.9 -99.99 -9.99
2019/11/21 18:18 EST    2.95   4.24 -999 -999 -999  50.4  49.6 1019.0 -9.9 -9.999 -99.9 -99.99 -9.99
2019/11/21 18:24 EST    2.83   4.12 -999 -999 -999  50.5  49.6 1018.9 -9.9 -9.999 -99.9 -99.99 -9.99
2019/11/21 18:30 EST    2.72   4.00 -999 -999 -999  50.4  49.6 1018.8 -9.9 -9.999 -99.9 -99.99 -9.99
2019/11/21 18:36 EST    2.61   3.83 -999 -999 -999  50.2  49.5 1018.8 -9.9 -9.999 -99.9 -99.99 -9.99
2019/11/21 18:42 EST    2.50   3.71 -999 -999 -999  50.2  49.5 1018.8 -9.9 -9.999 -99.9 -99.99 -9.99
2019/11/21 18:48 EST    2.39   3.60 -999 -999 -999  50.0  49.5 1019.0 -9.9 -9.999 -99.9 -99.99 -9.99
2019/11/21 18:54 EST    2.28   3.44 -999 -999 -999  50.0  49.5 1018.9 -9.9 -9.999 -99.9 -99.99 -9.99
2019/11/21 19:00 EST    2.17   3.33 -999 -999 -999  49.8  49.5 1018.8 -9.9 -9.999 -99.9 -99.99 -9.99
2019/11/21 19:06 EST    2.07   3.20 -999 -999 -999  49.6  49.5 1018.8 -9.9 -9.999 -99.9 -99.99 -9.99
2019/11/21 19:12 EST    1.96   3.07 -999 -999 -999  49.5  49.5 1018.8 -9.9 -9.999 -99.9 -99.99 -9.99
2019/11/21 19:18 EST    1.86   2.95 -999 -999 -999  49.5  49.5 1018.8 -9.9 -9.999 -99.9 -99.99 -9.99
2019/11/21 19:24 EST    1.76   2.83 -999 -999 -999  49.3  49.5 1018.6 -9.9 -9.999 -99.9 -99.99 -9.99
2019/11/21 19:30 EST    1.66   2.71 -999 -999 -999  49.3  49.5 1018.5 -9.9 -9.999 -99.9 -99.99 -9.99
2019/11/21 19:36 EST    1.57   2.61 -999 -999 -999  49.3  49.5 1018.6 -9.9 -9.999 -99.9 -99.99 -9.99
2019/11/21 19:42 EST    1.47   2.50 -999 -999 -999  49.3  49.5 1018.5 -9.9 -9.999 -99.9 -99.99 -9.99
2019/11/21 19:48 EST    1.38   2.40 -999 -999 -999  49.5  49.5 1018.4 -9.9 -9.999 -99.9 -99.99 -9.99
2019/11/21 19:54 EST    1.28   2.29 -999 -999 -999  49.5  49.5 1018.5 -9.9 -9.999 -99.9 -99.99 -9.99
2019/11/21 20:00 EST    1.19   2.19 -999 -999 -999  49.6  49.5 1018.4 -9.9 -9.999 -99.9 -99.99 -9.99
2019/11/21 20:06 EST    1.10   2.10 -999 -999 -999  49.6  49.5 1018.3 -9.9 -9.999 -99.9 -99.99 -9.99
2019/11/21 20:12 EST    1.02   2.01 -999 -999 -999  49.5  49.5 1018.2 -9.9 -9.999 -99.9 -99.99 -9.99
2019/11/21 20:18 EST    0.93   1.92 -999 -999 -999  49.5  49.3 1018.2 -9.9 -9.999 -99.9 -99.99 -9.99
2019/11/21 20:24 EST    0.84   1.84 -999 -999 -999  49.5  49.3 1017.9 -9.9 -9.999 -99.9 -99.99 -9.99
2019/11/21 20:30 EST    0.76   1.75 -999 -999 -999  49.5  49.3 1018.0 -9.9 -9.999 -99.9 -99.99 -9.99
2019/11/21 20:36 EST    0.68   1.69 -999 -999 -999  49.3  49.3 1018.0 -9.9 -9.999 -99.9 -99.99 -9.99
2019/11/21 20:42 EST    0.60   1.61 -999 -999 -999  49.3  49.3 1017.8 -9.9 -9.999 -99.9 -99.99 -9.99
2019/11/21 20:48 EST    0.52   1.52 -999 -999 -999  49.1  49.3 1017.9 -9.9 -9.999 -99.9 -99.99 -9.99
2019/11/21 20:54 EST    0.44   1.47 -999 -999 -999  48.9  49.3 1017.8 -9.9 -9.999 -99.9 -99.99 -9.99
2019/11/21 21:00 EST    0.37   1.39 -999 -999 -999  48.9  49.3 1017.6 -9.9 -9.999 -99.9 -99.99 -9.99
2019/11/21 21:06 EST    0.30   1.33 -999 -999 -999  48.9  49.3 1017.6 -9.9 -9.999 -99.9 -99.99 -9.99
2019/11/21 21:12 EST    0.23   1.27 -999 -999 -999  48.9  49.3 1017.6 -9.9 -9.999 -99.9 -99.99 -9.99
2019/11/21 21:18 EST    0.17   1.21 -999 -999 -999  48.7  49.3 1017.2 -9.9 -9.999 -99.9 -99.99 -9.99
2019/11/21 21:24 EST    0.11   1.17 -999 -999 -999  48.7  49.3 1017.1 -9.9 -9.999 -99.9 -99.99 -9.99
2019/11/21 21:30 EST    0.06   1.15 -999 -999 -999  48.9  49.3 1017.0 -9.9 -9.999 -99.9 -99.99 -9.99
2019/11/21 21:36 EST    0.01   1.12 -999 -999 -999  48.7  49.3 1017.1 -9.9 -9.999 -99.9 -99.99 -9.99
2019/11/21 21:42 EST   -0.04   1.09 -999 -999 -999  48.7  49.3 1017.1 -9.9 -9.999 -99.9 -99.99 -9.99
2019/11/21 21:48 EST   -0.08   1.04 -999 -999 -999  48.7  49.3 1017.2 -9.9 -9.999 -99.9 -99.99 -9.99
2019/11/21 21:54 EST   -0.11   1.04 -999 -999 -999  48.6  49.3 1017.0 -9.9 -9.999 -99.9 -99.99 -9.99
2019/11/21 22:00 EST   -0.13   1.05 -999 -999 -999  48.4  49.3 1017.0 -9.9 -9.999 -99.9 -99.99 -9.99
2019/11/21 22:06 EST   -0.15   1.04 -999 -999 -999  48.6  49.3 1016.8 -9.9 -9.999 -99.9 -99.99 -9.99
2019/11/21 22:12 EST   -0.16   1.05 -999 -999 -999  48.6  49.3 1016.5 -9.9 -9.999 -99.9 -99.99 -9.99
2019/11/21 22:18 EST   -0.16   1.07 -999 -999 -999  48.4  49.3 1016.4 -9.9 -9.999 -99.9 -99.99 -9.99
2019/11/21 22:24 EST   -0.15   1.10 -999 -999 -999  48.6  49.3 1016.3 -9.9 -9.999 -99.9 -99.99 -9.99
2019/11/21 22:30 EST   -0.14   1.13 -999 -999 -999  48.6  49.3 1016.1 -9.9 -9.999 -99.9 -99.99 -9.99
2019/11/21 22:36 EST   -0.11   1.17 -999 -999 -999  48.4  49.3 1016.0 -9.9 -9.999 -99.9 -99.99 -9.99
2019/11/21 22:42 EST   -0.08   1.24 -999 -999 -999  48.4  49.3 1016.1 -9.9 -9.999 -99.9 -99.99 -9.99
2019/11/21 22:48 EST   -0.03   1.31 -999 -999 -999  48.4  49.3 1016.1 -9.9 -9.999 -99.9 -99.99 -9.99
2019/11/21 22:54 EST    0.02   1.39 -999 -999 -999  48.4  49.5 1015.9 -9.9 -9.999 -99.9 -99.99 -9.99
2019/11/21 23:00 EST    0.09   1.48 -999 -999 -999  48.2  49.5 1015.8 -9.9 -9.999 -99.9 -99.99 -9.99
2019/11/21 23:06 EST    0.16   1.59 -999 -999 -999  48.2  49.5 1015.6 -9.9 -9.999 -99.9 -99.99 -9.99
2019/11/21 23:12 EST    0.24   1.70 -999 -999 -999  48.0  49.5 1015.4 -9.9 -9.999 -99.9 -99.99 -9.99
2019/11/21 23:18 EST    0.33   1.81 -999 -999 -999  47.8  49.5 1015.2 -9.9 -9.999 -99.9 -99.99 -9.99
2019/11/21 23:24 EST    0.43   1.93 -999 -999 -999  47.7  49.5 1015.4 -9.9 -9.999 -99.9 -99.99 -9.99
2019/11/21 23:30 EST    0.54   2.06 -999 -999 -999  47.8  49.5 1015.6 -9.9 -9.999 -99.9 -99.99 -9.99
2019/11/21 23:36 EST    0.66   2.20 -999 -999 -999  47.8  49.5 1015.8 -9.9 -9.999 -99.9 -99.99 -9.99
2019/11/21 23:42 EST    0.78   2.32 -999 -999 -999  47.7  49.5 1015.8 -9.9 -9.999 -99.9 -99.99 -9.99
2019/11/21 23:48 EST    0.91   2.50 -999 -999 -999  47.7  49.5 1016.1 -9.9 -9.999 -99.9 -99.99 -9.99
2019/11/21 23:54 EST    1.05   2.65 -999 -999 -999  47.7  49.5 1015.7 -9.9 -9.999 -99.9 -99.99 -9.99
2019/11/22 00:00 EST    1.19   2.80 -999 -999 -999  47.7  49.5 1015.7 -9.9 -9.999 -99.9 -99.99 -9.99
2019/11/22 00:06 EST    1.33   2.97 -999 -999 -999  47.7  49.5 1015.7 -9.9 -9.999 -99.9 -99.99 -9.99
2019/11/22 00:12 EST    1.48   3.13 -999 -999 -999  47.7  49.5 1015.7 -9.9 -9.999 -99.9 -99.99 -9.99
2019/11/22 00:18 EST    1.64   3.29 -999 -999 -999  47.8  49.5 1015.6 -9.9 -9.999 -99.9 -99.99 -9.99
2019/11/22 00:24 EST    1.80   3.46 -999 -999 -999  47.8  49.5 1015.4 -9.9 -9.999 -99.9 -99.99 -9.99
2019/11/22 00:30 EST    1.95   3.63 -999 -999 -999  47.8  49.5 1015.1 -9.9 -9.999 -99.9 -99.99 -9.99
2019/11/22 00:36 EST    2.11   3.79 -999 -999 -999  48.0  49.5 1014.9 -9.9 -9.999 -99.9 -99.99 -9.99
2019/11/22 00:42 EST    2.28   3.94 -999 -999 -999  48.0  49.5 1014.9 -9.9 -9.999 -99.9 -99.99 -9.99
2019/11/22 00:48 EST    2.44   4.09 -999 -999 -999  48.0  49.5 1014.8 -9.9 -9.999 -99.9 -99.99 -9.99
2019/11/22 00:54 EST    2.60   4.25 -999 -999 -999  47.8  49.5 1014.7 -9.9 -9.999 -99.9 -99.99 -9.99
2019/11/22 01:00 EST    2.75   4.40 -999 -999 -999  47.8  49.5 1014.6 -9.9 -9.999 -99.9 -99.99 -9.99
2019/11/22 01:06 EST    2.91   4.53 -999 -999 -999  48.0  49.5 1014.5 -9.9 -9.999 -99.9 -99.99 -9.99
2019/11/22 01:12 EST    3.06   4.69 -999 -999 -999  48.0  49.5 1014.3 -9.9 -9.999 -99.9 -99.99 -9.99
2019/11/22 01:18 EST    3.21   4.82 -999 -999 -999  47.8  49.5 1014.6 -9.9 -9.999 -99.9 -99.99 -9.99
2019/11/22 01:24 EST    3.36   4.95 -999 -999 -999  47.8  49.5 1014.6 -9.9 -9.999 -99.9 -99.99 -9.99
2019/11/22 01:30 EST    3.51   5.06 -999 -999 -999  47.7  49.6 1014.4 -9.9 -9.999 -99.9 -99.99 -9.99
2019/11/22 01:36 EST    3.64   5.18 -999 -999 -999  47.7  49.6 1014.4 -9.9 -9.999 -99.9 -99.99 -9.99
2019/11/22 01:42 EST    3.78   5.28 -999 -999 -999  47.8  49.6 1014.4 -9.9 -9.999 -99.9 -99.99 -9.99
2019/11/22 01:48 EST    3.91   5.37 -999 -999 -999  47.8  49.6 1014.3 -9.9 -9.999 -99.9 -99.99 -9.99
2019/11/22 01:54 EST    4.03   5.45 -999 -999 -999  47.8  49.6 1014.3 -9.9 -9.999 -99.9 -99.99 -9.99
2019/11/22 02:00 EST    4.15   5.53 -999 -999 -999  47.8  49.6 1014.0 -9.9 -9.999 -99.9 -99.99 -9.99
2019/11/22 02:06 EST    4.27   5.60 -999 -999 -999  47.8  49.6 1013.7 -9.9 -9.999 -99.9 -99.99 -9.99
2019/11/22 02:12 EST    4.37   5.69 -999 -999 -999  47.8  49.6 1013.7 -9.9 -9.999 -99.9 -99.99 -9.99
2019/11/22 02:18 EST    4.48   5.77 -999 -999 -999  47.7  49.6 1013.5 -9.9 -9.999 -99.9 -99.99 -9.99
2019/11/22 02:24 EST    4.57   5.85 -999 -999 -999  47.7  49.8 1013.4 -9.9 -9.999 -99.9 -99.99 -9.99
2019/11/22 02:30 EST    4.67   5.92 -999 -999 -999  47.7  49.8 1013.4 -9.9 -9.999 -99.9 -99.99 -9.99
2019/11/22 02:36 EST    4.75   5.96 -999 -999 -999  47.7  49.8 1013.4 -9.9 -9.999 -99.9 -99.99 -9.99
2019/11/22 02:42 EST    4.83   6.00 -999 -999 -999  47.5  49.8 1013.2 -9.9 -9.999 -99.9 -99.99 -9.99
2019/11/22 02:48 EST    4.91   6.05 -999 -999 -999  47.5  49.8 1013.2 -9.9 -9.999 -99.9 -99.99 -9.99
2019/11/22 02:54 EST    4.98   6.08 -999 -999 -999  47.5  49.8 1013.1 -9.9 -9.999 -99.9 -99.99 -9.99
2019/11/22 03:00 EST    5.04   6.17 -999 -999 -999  47.5  49.8 1013.0 -9.9 -9.999 -99.9 -99.99 -9.99
2019/11/22 03:06 EST    5.10   6.20 -999 -999 -999  47.5  50.0 1012.9 -9.9 -9.999 -99.9 -99.99 -9.99
2019/11/22 03:12 EST    5.15   6.25 -999 -999 -999  47.5  50.0 1012.8 -9.9 -9.999 -99.9 -99.99 -9.99
2019/11/22 03:18 EST    5.20   6.30 -999 -999 -999  47.5  50.0 1012.6 -9.9 -9.999 -99.9 -99.99 -9.99
2019/11/22 03:24 EST    5.24   6.32 -999 -999 -999  47.5  50.0 1012.4 -9.9 -9.999 -99.9 -99.99 -9.99
2019/11/22 03:30 EST    5.27   6.36 -999 -999 -999  47.5  50.0 1012.4 -9.9 -9.999 -99.9 -99.99 -9.99
2019/11/22 03:36 EST    5.30   6.40 -999 -999 -999  47.5  50.0 1012.2 -9.9 -9.999 -99.9 -99.99 -9.99
2019/11/22 03:42 EST    5.32   6.41 -999 -999 -999  47.5  50.0 1012.3 -9.9 -9.999 -99.9 -99.99 -9.99
2019/11/22 03:48 EST    5.34   6.44 -999 -999 -999  47.5  50.0 1012.3 -9.9 -9.999 -99.9 -99.99 -9.99
2019/11/22 03:54 EST    5.35   6.46 -999 -999 -999  47.5  50.0 1012.4 -9.9 -9.999 -99.9 -99.99 -9.99
2019/11/22 04:00 EST    5.35   6.47 -999 -999 -999  47.5  50.0 1012.4 -9.9 -9.999 -99.9 -99.99 -9.99
2019/11/22 04:06 EST    5.35   6.48 -999 -999 -999  47.3  50.0 1012.1 -9.9 -9.999 -99.9 -99.99 -9.99
2019/11/22 04:12 EST    5.35   6.49 -999 -999 -999  47.3  50.0 1012.1 -9.9 -9.999 -99.9 -99.99 -9.99
2019/11/22 04:18 EST    5.33   6.46 -999 -999 -999  47.1  50.2 1012.0 -9.9 -9.999 -99.9 -99.99 -9.99
2019/11/22 04:24 EST    5.31   6.44 -999 -999 -999  46.8  50.2 1011.9 -9.9 -9.999 -99.9 -99.99 -9.99
2019/11/22 04:30 EST    5.29   6.42 -999 -999 -999  46.8  50.2 1011.9 -9.9 -9.999 -99.9 -99.99 -9.99
2019/11/22 04:36 EST    5.25   6.35 -999 -999 -999  46.6  50.2 1011.9 -9.9 -9.999 -99.9 -99.99 -9.99
2019/11/22 04:42 EST    5.21   6.30 -999 -999 -999  46.4  50.2 1011.7 -9.9 -9.999 -99.9 -99.99 -9.99
2019/11/22 04:48 EST    5.17   6.25 -999 -999 -999  46.2  50.2 1011.6 -9.9 -9.999 -99.9 -99.99 -9.99
2019/11/22 04:54 EST    5.12   6.18 -999 -999 -999  46.0  50.0 1011.7 -9.9 -9.999 -99.9 -99.99 -9.99
2019/11/22 05:00 EST    5.06   6.09 -999 -999 -999  46.2  50.0 1011.7 -9.9 -9.999 -99.9 -99.99 -9.99
2019/11/22 05:06 EST    5.00   6.01 -999 -999 -999  46.2  50.0 1011.7 -9.9 -9.999 -99.9 -99.99 -9.99
2019/11/22 05:12 EST    4.93   5.91 -999 -999 -999  46.2  50.0 1011.7 -9.9 -9.999 -99.9 -99.99 -9.99
2019/11/22 05:18 EST    4.85   5.79 -999 -999 -999  46.4  50.0 1011.6 -9.9 -9.999 -99.9 -99.99 -9.99
2019/11/22 05:24 EST    4.77   5.69 -999 -999 -999  46.6  50.0 1011.4 -9.9 -9.999 -99.9 -99.99 -9.99
2019/11/22 05:30 EST    4.69   5.62 -999 -999 -999  46.6  50.0 1011.3 -9.9 -9.999 -99.9 -99.99 -9.99
2019/11/22 05:36 EST    4.60   5.51 -999 -999 -999  46.8  49.8 1011.1 -9.9 -9.999 -99.9 -99.99 -9.99
2019/11/22 05:42 EST    4.51   5.38 -999 -999 -999  46.8  49.8 1011.0 -9.9 -9.999 -99.9 -99.99 -9.99
2019/11/22 05:48 EST    4.41   5.30 -999 -999 -999  46.8  49.8 1010.8 -9.9 -9.999 -99.9 -99.99 -9.99
2019/11/22 05:54 EST    4.31   5.19 -999 -999 -999  46.9  49.8 1010.8 -9.9 -9.999 -99.9 -99.99 -9.99
2019/11/22 06:00 EST    4.20   5.07 -999 -999 -999  47.1  49.8 1010.8 -9.9 -9.999 -99.9 -99.99 -9.99
2019/11/22 06:06 EST    4.10   4.97 -999 -999 -999  47.1  49.8 1010.7 -9.9 -9.999 -99.9 -99.99 -9.99
2019/11/22 06:12 EST    3.99   4.87 -999 -999 -999  47.3  49.8 1010.7 -9.9 -9.999 -99.9 -99.99 -9.99
2019/11/22 06:18 EST    3.87   4.77 -999 -999 -999  47.5  49.8 1010.7 -9.9 -9.999 -99.9 -99.99 -9.99
2019/11/22 06:24 EST    3.76   4.66 -999 -999 -999  47.5  49.8 1010.6 -9.9 -9.999 -99.9 -99.99 -9.99
2019/11/22 06:30 EST    3.64   4.58 -999 -999 -999  47.7  49.8 1010.7 -9.9 -9.999 -99.9 -99.99 -9.99
2019/11/22 06:36 EST    3.53   4.43 -999 -999 -999  47.8  49.8 1010.7 -9.9 -9.999 -99.9 -99.99 -9.99
2019/11/22 06:42 EST    3.41   4.35 -999 -999 -999  48.0  49.6 1010.6 -9.9 -9.999 -99.9 -99.99 -9.99
2019/11/22 06:48 EST    3.29   4.25 -999 -999 -999  48.0  49.6 1010.5 -9.9 -9.999 -99.9 -99.99 -9.99
2019/11/22 06:54 EST    3.18   4.12 -999 -999 -999  48.0  49.8 1010.4 -9.9 -9.999 -99.9 -99.99 -9.99
2019/11/22 07:00 EST    3.06   3.98 -999 -999 -999  48.2  49.8 1010.2 -9.9 -9.999 -99.9 -99.99 -9.99
2019/11/22 07:06 EST    2.94   3.88 -999 -999 -999  48.2  49.8 1010.4 -9.9 -9.999 -99.9 -99.99 -9.99
2019/11/22 07:12 EST    2.83   3.77 -999 -999 -999  48.4  49.8 1010.3 -9.9 -9.999 -99.9 -99.99 -9.99
2019/11/22 07:18 EST    2.71   3.65 -999 -999 -999  48.4  49.8 1010.2 -9.9 -9.999 -99.9 -99.99 -9.99
2019/11/22 07:24 EST    2.60   3.54 -999 -999 -999  48.4  49.8 1010.1 -9.9 -9.999 -99.9 -99.99 -9.99
2019/11/22 07:30 EST    2.49   3.43 -999 -999 -999  48.6  49.8 1010.4 -9.9 -9.999 -99.9 -99.99 -9.99
2019/11/22 07:36 EST    2.38   3.29 -999 -999 -999  48.6  49.8 1010.1 -9.9 -9.999 -99.9 -99.99 -9.99
2019/11/22 07:42 EST    2.27   3.16 -999 -999 -999  48.7  49.8 1010.0 -9.9 -9.999 -99.9 -99.99 -9.99
2019/11/22 07:48 EST    2.16   3.05 -999 -999 -999  48.9  49.8 1010.1 -9.9 -9.999 -99.9 -99.99 -9.99
2019/11/22 07:54 EST    2.05   2.94 -999 -999 -999  48.9  49.8 1010.1 -9.9 -9.999 -99.9 -99.99 -9.99
2019/11/22 08:00 EST    1.95   2.83 -999 -999 -999  49.1  49.8 1009.8 -9.9 -9.999 -99.9 -99.99 -9.99
2019/11/22 08:06 EST    1.84   2.72 -999 -999 -999  49.1  49.8 1009.3 -9.9 -9.999 -99.9 -99.99 -9.99
2019/11/22 08:12 EST    1.74   2.62 -999 -999 -999  49.3  49.6 1009.2 -9.9 -9.999 -99.9 -99.99 -9.99
2019/11/22 08:18 EST    1.64   2.54 -999 -999 -999  49.5  49.6 1009.1 -9.9 -9.999 -99.9 -99.99 -9.99
2019/11/22 08:24 EST    1.54 -99.99 -999 -999 -999 -99.9 -99.9 -999.9 -9.9 -9.999 -99.9 -99.99 -9.99